﻿<?xml version="1.0" encoding="UTF-8" standalone="no"?>
<gpx xmlns="http://www.topografix.com/GPX/1/1" xmlns:gpxtpx="http://www.garmin.com/xmlschemas/TrackPointExtension/v1" xmlns:xsi="http://www.w3.org/2001/XMLSchema-instance" creator="Hribi.net" version="1.1" xsi:schemaLocation="http://www.topografix.com/GPX/1/1 http://www.topografix.com/GPX/1/1/gpx.xsd http://www.garmin.com/xmlschemas/TrackPointExtension/v1 http://www.garmin.com/xmlschemas/TrackPointExtensionv1.xsd">
  <metadata>
    <name>GPS sled</name>
    <desc>www.hribi.net</desc>
    <author>
      <name>hribi.net</name>
    </author>
    <link href="http://www.hribi.net">
      <text>Hribi.net</text>
    </link>
  </metadata>
  <trk>
    <trkseg>
      <trkpt lat="46.503941" lon="13.540339">
        <ele>857.0976</ele>
        <time>2010-02-27T09:39:13Z</time>
      </trkpt>
      <trkpt lat="46.503931" lon="13.540339">
        <ele>856.488</ele>
        <time>2010-02-27T09:39:14Z</time>
      </trkpt>
      <trkpt lat="46.503870" lon="13.540330">
        <ele>856.488</ele>
        <time>2010-02-27T09:39:19Z</time>
      </trkpt>
      <trkpt lat="46.503774" lon="13.540344">
        <ele>856.1832</ele>
        <time>2010-02-27T09:39:26Z</time>
      </trkpt>
      <trkpt lat="46.503701" lon="13.540337">
        <ele>857.0976</ele>
        <time>2010-02-27T09:39:33Z</time>
      </trkpt>
      <trkpt lat="46.503613" lon="13.540331">
        <ele>858.012</ele>
        <time>2010-02-27T09:39:41Z</time>
      </trkpt>
      <trkpt lat="46.503602" lon="13.540328">
        <ele>858.3168</ele>
        <time>2010-02-27T09:39:42Z</time>
      </trkpt>
      <trkpt lat="46.503523" lon="13.540342">
        <ele>859.536</ele>
        <time>2010-02-27T09:39:50Z</time>
      </trkpt>
      <trkpt lat="46.503456" lon="13.540366">
        <ele>861.6696</ele>
        <time>2010-02-27T09:39:57Z</time>
      </trkpt>
      <trkpt lat="46.503408" lon="13.540397">
        <ele>861.6696</ele>
        <time>2010-02-27T09:40:04Z</time>
      </trkpt>
      <trkpt lat="46.503329" lon="13.540498">
        <ele>865.632</ele>
        <time>2010-02-27T09:40:11Z</time>
      </trkpt>
      <trkpt lat="46.503258" lon="13.540571">
        <ele>866.5464</ele>
        <time>2010-02-27T09:40:17Z</time>
      </trkpt>
      <trkpt lat="46.503168" lon="13.540639">
        <ele>868.0704</ele>
        <time>2010-02-27T09:40:28Z</time>
      </trkpt>
      <trkpt lat="46.503085" lon="13.540707">
        <ele>868.68</ele>
        <time>2010-02-27T09:40:36Z</time>
      </trkpt>
      <trkpt lat="46.503031" lon="13.540742">
        <ele>869.5944</ele>
        <time>2010-02-27T09:40:43Z</time>
      </trkpt>
      <trkpt lat="46.502935" lon="13.540825">
        <ele>869.5944</ele>
        <time>2010-02-27T09:40:54Z</time>
      </trkpt>
      <trkpt lat="46.502921" lon="13.540842">
        <ele>869.8992</ele>
        <time>2010-02-27T09:40:55Z</time>
      </trkpt>
      <trkpt lat="46.502866" lon="13.540881">
        <ele>872.0328</ele>
        <time>2010-02-27T09:41:01Z</time>
      </trkpt>
      <trkpt lat="46.502772" lon="13.540955">
        <ele>875.6904</ele>
        <time>2010-02-27T09:41:10Z</time>
      </trkpt>
      <trkpt lat="46.502697" lon="13.540988">
        <ele>879.9576</ele>
        <time>2010-02-27T09:41:18Z</time>
      </trkpt>
      <trkpt lat="46.502672" lon="13.541001">
        <ele>879.6528</ele>
        <time>2010-02-27T09:41:21Z</time>
      </trkpt>
      <trkpt lat="46.502632" lon="13.541006">
        <ele>881.4816</ele>
        <time>2010-02-27T09:41:25Z</time>
      </trkpt>
      <trkpt lat="46.502595" lon="13.541003">
        <ele>885.444</ele>
        <time>2010-02-27T09:41:32Z</time>
      </trkpt>
      <trkpt lat="46.502533" lon="13.540984">
        <ele>886.3584</ele>
        <time>2010-02-27T09:41:38Z</time>
      </trkpt>
      <trkpt lat="46.502479" lon="13.540972">
        <ele>884.8344</ele>
        <time>2010-02-27T09:41:45Z</time>
      </trkpt>
      <trkpt lat="46.502441" lon="13.540955">
        <ele>887.8824</ele>
        <time>2010-02-27T09:41:51Z</time>
      </trkpt>
      <trkpt lat="46.502415" lon="13.540954">
        <ele>883.0056</ele>
        <time>2010-02-27T09:41:59Z</time>
      </trkpt>
      <trkpt lat="46.502398" lon="13.540953">
        <ele>879.9576</ele>
        <time>2010-02-27T09:42:07Z</time>
      </trkpt>
      <trkpt lat="46.502405" lon="13.540971">
        <ele>893.064</ele>
        <time>2010-02-27T09:42:27Z</time>
      </trkpt>
      <trkpt lat="46.502374" lon="13.540981">
        <ele>894.8928</ele>
        <time>2010-02-27T09:42:39Z</time>
      </trkpt>
      <trkpt lat="46.502321" lon="13.540984">
        <ele>893.6736</ele>
        <time>2010-02-27T09:42:46Z</time>
      </trkpt>
      <trkpt lat="46.502282" lon="13.540998">
        <ele>898.2456</ele>
        <time>2010-02-27T09:42:53Z</time>
      </trkpt>
      <trkpt lat="46.502225" lon="13.540987">
        <ele>899.16</ele>
        <time>2010-02-27T09:42:58Z</time>
      </trkpt>
      <trkpt lat="46.502180" lon="13.540971">
        <ele>903.1224</ele>
        <time>2010-02-27T09:43:03Z</time>
      </trkpt>
      <trkpt lat="46.502132" lon="13.540986">
        <ele>908.9136</ele>
        <time>2010-02-27T09:43:10Z</time>
      </trkpt>
      <trkpt lat="46.502087" lon="13.541002">
        <ele>917.1432</ele>
        <time>2010-02-27T09:43:16Z</time>
      </trkpt>
      <trkpt lat="46.502021" lon="13.540999">
        <ele>922.9344</ele>
        <time>2010-02-27T09:43:22Z</time>
      </trkpt>
      <trkpt lat="46.501953" lon="13.541002">
        <ele>927.8112</ele>
        <time>2010-02-27T09:43:30Z</time>
      </trkpt>
      <trkpt lat="46.501919" lon="13.540999">
        <ele>928.7256</ele>
        <time>2010-02-27T09:43:36Z</time>
      </trkpt>
      <trkpt lat="46.501880" lon="13.541016">
        <ele>929.0304</ele>
        <time>2010-02-27T09:43:41Z</time>
      </trkpt>
      <trkpt lat="46.501832" lon="13.541014">
        <ele>933.2976</ele>
        <time>2010-02-27T09:43:48Z</time>
      </trkpt>
      <trkpt lat="46.501810" lon="13.540963">
        <ele>931.164</ele>
        <time>2010-02-27T09:43:51Z</time>
      </trkpt>
      <trkpt lat="46.501812" lon="13.540844">
        <ele>921.4104</ele>
        <time>2010-02-27T09:43:56Z</time>
      </trkpt>
      <trkpt lat="46.501816" lon="13.540802">
        <ele>918.6672</ele>
        <time>2010-02-27T09:43:59Z</time>
      </trkpt>
      <trkpt lat="46.501827" lon="13.540746">
        <ele>915.0096</ele>
        <time>2010-02-27T09:44:02Z</time>
      </trkpt>
      <trkpt lat="46.501858" lon="13.540670">
        <ele>907.9992</ele>
        <time>2010-02-27T09:44:07Z</time>
      </trkpt>
      <trkpt lat="46.501861" lon="13.540640">
        <ele>906.4752</ele>
        <time>2010-02-27T09:44:10Z</time>
      </trkpt>
      <trkpt lat="46.501887" lon="13.540582">
        <ele>904.6464</ele>
        <time>2010-02-27T09:44:15Z</time>
      </trkpt>
      <trkpt lat="46.501897" lon="13.540522">
        <ele>903.1224</ele>
        <time>2010-02-27T09:44:19Z</time>
      </trkpt>
      <trkpt lat="46.501889" lon="13.540459">
        <ele>903.1224</ele>
        <time>2010-02-27T09:44:24Z</time>
      </trkpt>
      <trkpt lat="46.501859" lon="13.540417">
        <ele>904.0368</ele>
        <time>2010-02-27T09:44:30Z</time>
      </trkpt>
      <trkpt lat="46.501815" lon="13.540396">
        <ele>901.2936</ele>
        <time>2010-02-27T09:44:34Z</time>
      </trkpt>
      <trkpt lat="46.501765" lon="13.540376">
        <ele>900.684</ele>
        <time>2010-02-27T09:44:39Z</time>
      </trkpt>
      <trkpt lat="46.501759" lon="13.540366">
        <ele>900.3792</ele>
        <time>2010-02-27T09:44:41Z</time>
      </trkpt>
      <trkpt lat="46.501717" lon="13.540296">
        <ele>897.9408</ele>
        <time>2010-02-27T09:44:46Z</time>
      </trkpt>
      <trkpt lat="46.501692" lon="13.540234">
        <ele>899.7696</ele>
        <time>2010-02-27T09:44:54Z</time>
      </trkpt>
      <trkpt lat="46.501671" lon="13.540188">
        <ele>901.5984</ele>
        <time>2010-02-27T09:44:58Z</time>
      </trkpt>
      <trkpt lat="46.501650" lon="13.540119">
        <ele>904.0368</ele>
        <time>2010-02-27T09:45:05Z</time>
      </trkpt>
      <trkpt lat="46.501623" lon="13.540076">
        <ele>904.0368</ele>
        <time>2010-02-27T09:45:09Z</time>
      </trkpt>
      <trkpt lat="46.501595" lon="13.540052">
        <ele>902.208</ele>
        <time>2010-02-27T09:45:13Z</time>
      </trkpt>
      <trkpt lat="46.501565" lon="13.540019">
        <ele>904.0368</ele>
        <time>2010-02-27T09:45:18Z</time>
      </trkpt>
      <trkpt lat="46.501533" lon="13.539958">
        <ele>906.4752</ele>
        <time>2010-02-27T09:45:25Z</time>
      </trkpt>
      <trkpt lat="46.501506" lon="13.539931">
        <ele>909.828</ele>
        <time>2010-02-27T09:45:29Z</time>
      </trkpt>
      <trkpt lat="46.501467" lon="13.539903">
        <ele>910.4376</ele>
        <time>2010-02-27T09:45:35Z</time>
      </trkpt>
      <trkpt lat="46.501431" lon="13.539874">
        <ele>909.5232</ele>
        <time>2010-02-27T09:45:40Z</time>
      </trkpt>
      <trkpt lat="46.501394" lon="13.539857">
        <ele>912.2664</ele>
        <time>2010-02-27T09:45:44Z</time>
      </trkpt>
      <trkpt lat="46.501335" lon="13.539841">
        <ele>911.6568</ele>
        <time>2010-02-27T09:45:52Z</time>
      </trkpt>
      <trkpt lat="46.501275" lon="13.539832">
        <ele>914.0952</ele>
        <time>2010-02-27T09:45:59Z</time>
      </trkpt>
      <trkpt lat="46.501237" lon="13.539836">
        <ele>915.6192</ele>
        <time>2010-02-27T09:46:06Z</time>
      </trkpt>
      <trkpt lat="46.501214" lon="13.539833">
        <ele>916.2288</ele>
        <time>2010-02-27T09:46:10Z</time>
      </trkpt>
      <trkpt lat="46.501165" lon="13.539808">
        <ele>915.6192</ele>
        <time>2010-02-27T09:46:15Z</time>
      </trkpt>
      <trkpt lat="46.501139" lon="13.539763">
        <ele>917.448</ele>
        <time>2010-02-27T09:46:21Z</time>
      </trkpt>
      <trkpt lat="46.501124" lon="13.539696">
        <ele>919.5816</ele>
        <time>2010-02-27T09:46:26Z</time>
      </trkpt>
      <trkpt lat="46.501102" lon="13.539647">
        <ele>920.496</ele>
        <time>2010-02-27T09:46:31Z</time>
      </trkpt>
      <trkpt lat="46.501067" lon="13.539595">
        <ele>920.8008</ele>
        <time>2010-02-27T09:46:38Z</time>
      </trkpt>
      <trkpt lat="46.501029" lon="13.539554">
        <ele>922.02</ele>
        <time>2010-02-27T09:46:42Z</time>
      </trkpt>
      <trkpt lat="46.500997" lon="13.539517">
        <ele>924.1536</ele>
        <time>2010-02-27T09:46:48Z</time>
      </trkpt>
      <trkpt lat="46.500947" lon="13.539489">
        <ele>926.592</ele>
        <time>2010-02-27T09:46:53Z</time>
      </trkpt>
      <trkpt lat="46.500894" lon="13.539484">
        <ele>926.592</ele>
        <time>2010-02-27T09:46:58Z</time>
      </trkpt>
      <trkpt lat="46.500884" lon="13.539484">
        <ele>926.592</ele>
        <time>2010-02-27T09:47:00Z</time>
      </trkpt>
      <trkpt lat="46.500826" lon="13.539466">
        <ele>925.6776</ele>
        <time>2010-02-27T09:47:05Z</time>
      </trkpt>
      <trkpt lat="46.500775" lon="13.539452">
        <ele>925.6776</ele>
        <time>2010-02-27T09:47:12Z</time>
      </trkpt>
      <trkpt lat="46.500714" lon="13.539436">
        <ele>928.116</ele>
        <time>2010-02-27T09:47:17Z</time>
      </trkpt>
      <trkpt lat="46.500652" lon="13.539412">
        <ele>929.0304</ele>
        <time>2010-02-27T09:47:24Z</time>
      </trkpt>
      <trkpt lat="46.500641" lon="13.539407">
        <ele>928.7256</ele>
        <time>2010-02-27T09:47:24Z</time>
      </trkpt>
      <trkpt lat="46.500573" lon="13.539398">
        <ele>929.64</ele>
        <time>2010-02-27T09:47:31Z</time>
      </trkpt>
      <trkpt lat="46.500488" lon="13.539354">
        <ele>932.0784</ele>
        <time>2010-02-27T09:47:38Z</time>
      </trkpt>
      <trkpt lat="46.500423" lon="13.539286">
        <ele>932.9928</ele>
        <time>2010-02-27T09:47:44Z</time>
      </trkpt>
      <trkpt lat="46.500416" lon="13.539279">
        <ele>932.3832</ele>
        <time>2010-02-27T09:47:46Z</time>
      </trkpt>
      <trkpt lat="46.500397" lon="13.539219">
        <ele>932.9928</ele>
        <time>2010-02-27T09:47:50Z</time>
      </trkpt>
      <trkpt lat="46.500299" lon="13.539119">
        <ele>932.3832</ele>
        <time>2010-02-27T09:47:56Z</time>
      </trkpt>
      <trkpt lat="46.500206" lon="13.539006">
        <ele>929.64</ele>
        <time>2010-02-27T09:48:03Z</time>
      </trkpt>
      <trkpt lat="46.500167" lon="13.538937">
        <ele>928.7256</ele>
        <time>2010-02-27T09:48:06Z</time>
      </trkpt>
      <trkpt lat="46.500074" lon="13.538802">
        <ele>927.2016</ele>
        <time>2010-02-27T09:48:10Z</time>
      </trkpt>
      <trkpt lat="46.500008" lon="13.538685">
        <ele>926.592</ele>
        <time>2010-02-27T09:48:14Z</time>
      </trkpt>
      <trkpt lat="46.499937" lon="13.538599">
        <ele>929.64</ele>
        <time>2010-02-27T09:48:18Z</time>
      </trkpt>
      <trkpt lat="46.499888" lon="13.538507">
        <ele>931.4688</ele>
        <time>2010-02-27T09:48:22Z</time>
      </trkpt>
      <trkpt lat="46.499821" lon="13.538460">
        <ele>936.6504</ele>
        <time>2010-02-27T09:48:29Z</time>
      </trkpt>
      <trkpt lat="46.49979" lon="13.538460">
        <ele>938.1744</ele>
        <time>2010-02-27T09:48:32Z</time>
      </trkpt>
      <trkpt lat="46.499702" lon="13.538452">
        <ele>939.0888</ele>
        <time>2010-02-27T09:48:38Z</time>
      </trkpt>
      <trkpt lat="46.499652" lon="13.538465">
        <ele>942.4416</ele>
        <time>2010-02-27T09:48:45Z</time>
      </trkpt>
      <trkpt lat="46.499600" lon="13.538469">
        <ele>947.928</ele>
        <time>2010-02-27T09:48:49Z</time>
      </trkpt>
      <trkpt lat="46.499549" lon="13.538443">
        <ele>947.0136</ele>
        <time>2010-02-27T09:48:54Z</time>
      </trkpt>
      <trkpt lat="46.499476" lon="13.538440">
        <ele>950.6712</ele>
        <time>2010-02-27T09:49:01Z</time>
      </trkpt>
      <trkpt lat="46.499445" lon="13.538446">
        <ele>954.024</ele>
        <time>2010-02-27T09:49:04Z</time>
      </trkpt>
      <trkpt lat="46.499362" lon="13.538403">
        <ele>948.8424</ele>
        <time>2010-02-27T09:49:12Z</time>
      </trkpt>
      <trkpt lat="46.499330" lon="13.538345">
        <ele>945.4896</ele>
        <time>2010-02-27T09:49:16Z</time>
      </trkpt>
      <trkpt lat="46.499295" lon="13.538253">
        <ele>942.1368</ele>
        <time>2010-02-27T09:49:21Z</time>
      </trkpt>
      <trkpt lat="46.499278" lon="13.538212">
        <ele>940.308</ele>
        <time>2010-02-27T09:49:24Z</time>
      </trkpt>
      <trkpt lat="46.499272" lon="13.538155">
        <ele>939.6984</ele>
        <time>2010-02-27T09:49:28Z</time>
      </trkpt>
      <trkpt lat="46.499263" lon="13.538088">
        <ele>939.0888</ele>
        <time>2010-02-27T09:49:31Z</time>
      </trkpt>
      <trkpt lat="46.499224" lon="13.537999">
        <ele>938.1744</ele>
        <time>2010-02-27T09:49:39Z</time>
      </trkpt>
      <trkpt lat="46.499206" lon="13.537938">
        <ele>937.8696</ele>
        <time>2010-02-27T09:49:44Z</time>
      </trkpt>
      <trkpt lat="46.499181" lon="13.537867">
        <ele>940.308</ele>
        <time>2010-02-27T09:49:51Z</time>
      </trkpt>
      <trkpt lat="46.499148" lon="13.537819">
        <ele>942.4416</ele>
        <time>2010-02-27T09:49:55Z</time>
      </trkpt>
      <trkpt lat="46.499116" lon="13.537786">
        <ele>947.3184</ele>
        <time>2010-02-27T09:50:01Z</time>
      </trkpt>
      <trkpt lat="46.499080" lon="13.537749">
        <ele>947.928</ele>
        <time>2010-02-27T09:50:06Z</time>
      </trkpt>
      <trkpt lat="46.499092" lon="13.537743">
        <ele>947.928</ele>
        <time>2010-02-27T09:50:10Z</time>
      </trkpt>
      <trkpt lat="46.499079" lon="13.537698">
        <ele>949.7568</ele>
        <time>2010-02-27T09:50:14Z</time>
      </trkpt>
      <trkpt lat="46.499017" lon="13.537633">
        <ele>948.2328</ele>
        <time>2010-02-27T09:50:22Z</time>
      </trkpt>
      <trkpt lat="46.499008" lon="13.537621">
        <ele>947.3184</ele>
        <time>2010-02-27T09:50:22Z</time>
      </trkpt>
      <trkpt lat="46.498989" lon="13.537579">
        <ele>945.7944</ele>
        <time>2010-02-27T09:50:26Z</time>
      </trkpt>
      <trkpt lat="46.498934" lon="13.537536">
        <ele>943.0512</ele>
        <time>2010-02-27T09:50:33Z</time>
      </trkpt>
      <trkpt lat="46.498903" lon="13.537481">
        <ele>943.6608</ele>
        <time>2010-02-27T09:50:38Z</time>
      </trkpt>
      <trkpt lat="46.498870" lon="13.537448">
        <ele>944.5752</ele>
        <time>2010-02-27T09:50:42Z</time>
      </trkpt>
      <trkpt lat="46.498847" lon="13.537387">
        <ele>945.7944</ele>
        <time>2010-02-27T09:50:49Z</time>
      </trkpt>
      <trkpt lat="46.498846" lon="13.537314">
        <ele>947.3184</ele>
        <time>2010-02-27T09:50:55Z</time>
      </trkpt>
      <trkpt lat="46.498845" lon="13.537245">
        <ele>949.1472</ele>
        <time>2010-02-27T09:51:00Z</time>
      </trkpt>
      <trkpt lat="46.498842" lon="13.537172">
        <ele>948.8424</ele>
        <time>2010-02-27T09:51:07Z</time>
      </trkpt>
      <trkpt lat="46.498832" lon="13.537099">
        <ele>949.1472</ele>
        <time>2010-02-27T09:51:12Z</time>
      </trkpt>
      <trkpt lat="46.498804" lon="13.537038">
        <ele>950.6712</ele>
        <time>2010-02-27T09:51:18Z</time>
      </trkpt>
      <trkpt lat="46.498777" lon="13.536979">
        <ele>950.6712</ele>
        <time>2010-02-27T09:51:23Z</time>
      </trkpt>
      <trkpt lat="46.498741" lon="13.536920">
        <ele>953.1096</ele>
        <time>2010-02-27T09:51:28Z</time>
      </trkpt>
      <trkpt lat="46.498726" lon="13.536907">
        <ele>953.1096</ele>
        <time>2010-02-27T09:51:31Z</time>
      </trkpt>
      <trkpt lat="46.498666" lon="13.536862">
        <ele>953.7192</ele>
        <time>2010-02-27T09:51:36Z</time>
      </trkpt>
      <trkpt lat="46.498638" lon="13.536817">
        <ele>954.6336</ele>
        <time>2010-02-27T09:51:42Z</time>
      </trkpt>
      <trkpt lat="46.498603" lon="13.536795">
        <ele>954.024</ele>
        <time>2010-02-27T09:51:46Z</time>
      </trkpt>
      <trkpt lat="46.498558" lon="13.536775">
        <ele>954.6336</ele>
        <time>2010-02-27T09:51:50Z</time>
      </trkpt>
      <trkpt lat="46.498519" lon="13.536754">
        <ele>954.9384</ele>
        <time>2010-02-27T09:51:55Z</time>
      </trkpt>
      <trkpt lat="46.498480" lon="13.536728">
        <ele>954.024</ele>
        <time>2010-02-27T09:52:01Z</time>
      </trkpt>
      <trkpt lat="46.498440" lon="13.536710">
        <ele>954.6336</ele>
        <time>2010-02-27T09:52:06Z</time>
      </trkpt>
      <trkpt lat="46.498392" lon="13.536692">
        <ele>955.548</ele>
        <time>2010-02-27T09:52:10Z</time>
      </trkpt>
      <trkpt lat="46.498359" lon="13.536685">
        <ele>956.4624</ele>
        <time>2010-02-27T09:52:14Z</time>
      </trkpt>
      <trkpt lat="46.498341" lon="13.536659">
        <ele>960.7296</ele>
        <time>2010-02-27T09:52:21Z</time>
      </trkpt>
      <trkpt lat="46.498322" lon="13.536611">
        <ele>964.0824</ele>
        <time>2010-02-27T09:52:25Z</time>
      </trkpt>
      <trkpt lat="46.498294" lon="13.536552">
        <ele>968.0448</ele>
        <time>2010-02-27T09:52:32Z</time>
      </trkpt>
      <trkpt lat="46.498277" lon="13.536513">
        <ele>968.6544</ele>
        <time>2010-02-27T09:52:37Z</time>
      </trkpt>
      <trkpt lat="46.498272" lon="13.536479">
        <ele>968.9592</ele>
        <time>2010-02-27T09:52:40Z</time>
      </trkpt>
      <trkpt lat="46.498258" lon="13.536452">
        <ele>968.9592</ele>
        <time>2010-02-27T09:52:44Z</time>
      </trkpt>
      <trkpt lat="46.498235" lon="13.536405">
        <ele>969.5688</ele>
        <time>2010-02-27T09:52:51Z</time>
      </trkpt>
      <trkpt lat="46.498208" lon="13.536346">
        <ele>969.5688</ele>
        <time>2010-02-27T09:52:57Z</time>
      </trkpt>
      <trkpt lat="46.498184" lon="13.536324">
        <ele>971.3976</ele>
        <time>2010-02-27T09:53:03Z</time>
      </trkpt>
      <trkpt lat="46.498168" lon="13.536300">
        <ele>974.7504</ele>
        <time>2010-02-27T09:53:07Z</time>
      </trkpt>
      <trkpt lat="46.498130" lon="13.536253">
        <ele>975.6648</ele>
        <time>2010-02-27T09:53:14Z</time>
      </trkpt>
      <trkpt lat="46.498097" lon="13.536219">
        <ele>976.5792</ele>
        <time>2010-02-27T09:53:19Z</time>
      </trkpt>
      <trkpt lat="46.498056" lon="13.536176">
        <ele>976.5792</ele>
        <time>2010-02-27T09:53:24Z</time>
      </trkpt>
      <trkpt lat="46.498037" lon="13.536153">
        <ele>976.5792</ele>
        <time>2010-02-27T09:53:27Z</time>
      </trkpt>
      <trkpt lat="46.497991" lon="13.536094">
        <ele>976.5792</ele>
        <time>2010-02-27T09:53:34Z</time>
      </trkpt>
      <trkpt lat="46.497956" lon="13.536030">
        <ele>978.1032</ele>
        <time>2010-02-27T09:53:39Z</time>
      </trkpt>
      <trkpt lat="46.497915" lon="13.535982">
        <ele>980.5416</ele>
        <time>2010-02-27T09:53:46Z</time>
      </trkpt>
      <trkpt lat="46.497872" lon="13.535955">
        <ele>981.1512</ele>
        <time>2010-02-27T09:53:50Z</time>
      </trkpt>
      <trkpt lat="46.497824" lon="13.535910">
        <ele>983.8944</ele>
        <time>2010-02-27T09:53:57Z</time>
      </trkpt>
      <trkpt lat="46.497784" lon="13.535872">
        <ele>982.0656</ele>
        <time>2010-02-27T09:54:02Z</time>
      </trkpt>
      <trkpt lat="46.497743" lon="13.535846">
        <ele>981.1512</ele>
        <time>2010-02-27T09:54:08Z</time>
      </trkpt>
      <trkpt lat="46.497685" lon="13.535795">
        <ele>982.0656</ele>
        <time>2010-02-27T09:54:14Z</time>
      </trkpt>
      <trkpt lat="46.497637" lon="13.53576">
        <ele>982.0656</ele>
        <time>2010-02-27T09:54:21Z</time>
      </trkpt>
      <trkpt lat="46.497579" lon="13.535733">
        <ele>983.8944</ele>
        <time>2010-02-27T09:54:27Z</time>
      </trkpt>
      <trkpt lat="46.497518" lon="13.535703">
        <ele>984.504</ele>
        <time>2010-02-27T09:54:32Z</time>
      </trkpt>
      <trkpt lat="46.497468" lon="13.535661">
        <ele>985.4184</ele>
        <time>2010-02-27T09:54:36Z</time>
      </trkpt>
      <trkpt lat="46.497364" lon="13.535650">
        <ele>990.2952</ele>
        <time>2010-02-27T09:54:44Z</time>
      </trkpt>
      <trkpt lat="46.497296" lon="13.535641">
        <ele>995.7816</ele>
        <time>2010-02-27T09:54:48Z</time>
      </trkpt>
      <trkpt lat="46.497228" lon="13.535678">
        <ele>1013.7648</ele>
        <time>2010-02-27T09:54:54Z</time>
      </trkpt>
      <trkpt lat="46.497150" lon="13.535651">
        <ele>1020.7752</ele>
        <time>2010-02-27T09:54:59Z</time>
      </trkpt>
      <trkpt lat="46.497103" lon="13.535639">
        <ele>1029.9192</ele>
        <time>2010-02-27T09:55:03Z</time>
      </trkpt>
      <trkpt lat="46.497036" lon="13.535610">
        <ele>1039.9776</ele>
        <time>2010-02-27T09:55:10Z</time>
      </trkpt>
      <trkpt lat="46.497000" lon="13.535594">
        <ele>1043.0256</ele>
        <time>2010-02-27T09:55:12Z</time>
      </trkpt>
      <trkpt lat="46.496950" lon="13.535550">
        <ele>1042.416</ele>
        <time>2010-02-27T09:55:17Z</time>
      </trkpt>
      <trkpt lat="46.496884" lon="13.535482">
        <ele>1039.6728</ele>
        <time>2010-02-27T09:55:22Z</time>
      </trkpt>
      <trkpt lat="46.496838" lon="13.535453">
        <ele>1034.4912</ele>
        <time>2010-02-27T09:55:26Z</time>
      </trkpt>
      <trkpt lat="46.496775" lon="13.535416">
        <ele>1032.0528</ele>
        <time>2010-02-27T09:55:33Z</time>
      </trkpt>
      <trkpt lat="46.496721" lon="13.535374">
        <ele>1029.0048</ele>
        <time>2010-02-27T09:55:38Z</time>
      </trkpt>
      <trkpt lat="46.496666" lon="13.535348">
        <ele>1031.4432</ele>
        <time>2010-02-27T09:55:45Z</time>
      </trkpt>
      <trkpt lat="46.496614" lon="13.535318">
        <ele>1032.9672</ele>
        <time>2010-02-27T09:55:50Z</time>
      </trkpt>
      <trkpt lat="46.496564" lon="13.535276">
        <ele>1026.2616</ele>
        <time>2010-02-27T09:55:57Z</time>
      </trkpt>
      <trkpt lat="46.496531" lon="13.535267">
        <ele>1028.0904</ele>
        <time>2010-02-27T09:56:01Z</time>
      </trkpt>
      <trkpt lat="46.496480" lon="13.535224">
        <ele>1020.4704</ele>
        <time>2010-02-27T09:56:06Z</time>
      </trkpt>
      <trkpt lat="46.496449" lon="13.535185">
        <ele>1012.8504</ele>
        <time>2010-02-27T09:56:11Z</time>
      </trkpt>
      <trkpt lat="46.496421" lon="13.535147">
        <ele>1006.4496</ele>
        <time>2010-02-27T09:56:15Z</time>
      </trkpt>
      <trkpt lat="46.496379" lon="13.535097">
        <ele>1000.3536</ele>
        <time>2010-02-27T09:56:20Z</time>
      </trkpt>
      <trkpt lat="46.496341" lon="13.535056">
        <ele>997.3056</ele>
        <time>2010-02-27T09:56:24Z</time>
      </trkpt>
      <trkpt lat="46.496298" lon="13.535026">
        <ele>997.0008</ele>
        <time>2010-02-27T09:56:29Z</time>
      </trkpt>
      <trkpt lat="46.496245" lon="13.534993">
        <ele>995.7816</ele>
        <time>2010-02-27T09:56:36Z</time>
      </trkpt>
      <trkpt lat="46.496208" lon="13.534976">
        <ele>994.8672</ele>
        <time>2010-02-27T09:56:40Z</time>
      </trkpt>
      <trkpt lat="46.496187" lon="13.534961">
        <ele>995.7816</ele>
        <time>2010-02-27T09:56:43Z</time>
      </trkpt>
      <trkpt lat="46.496151" lon="13.534929">
        <ele>993.9528</ele>
        <time>2010-02-27T09:56:47Z</time>
      </trkpt>
      <trkpt lat="46.496115" lon="13.534899">
        <ele>990.6</ele>
        <time>2010-02-27T09:56:51Z</time>
      </trkpt>
      <trkpt lat="46.496086" lon="13.534914">
        <ele>996.3912</ele>
        <time>2010-02-27T09:56:55Z</time>
      </trkpt>
      <trkpt lat="46.496055" lon="13.534928">
        <ele>1003.7064</ele>
        <time>2010-02-27T09:56:59Z</time>
      </trkpt>
      <trkpt lat="46.496016" lon="13.534928">
        <ele>1007.364</ele>
        <time>2010-02-27T09:57:03Z</time>
      </trkpt>
      <trkpt lat="46.495976" lon="13.534909">
        <ele>1006.4496</ele>
        <time>2010-02-27T09:57:09Z</time>
      </trkpt>
      <trkpt lat="46.495942" lon="13.534903">
        <ele>1008.888</ele>
        <time>2010-02-27T09:57:13Z</time>
      </trkpt>
      <trkpt lat="46.495901" lon="13.534881">
        <ele>1008.2784</ele>
        <time>2010-02-27T09:57:18Z</time>
      </trkpt>
      <trkpt lat="46.495866" lon="13.534844">
        <ele>1008.2784</ele>
        <time>2010-02-27T09:57:22Z</time>
      </trkpt>
      <trkpt lat="46.495831" lon="13.534782">
        <ele>1013.7648</ele>
        <time>2010-02-27T09:57:29Z</time>
      </trkpt>
      <trkpt lat="46.495794" lon="13.534711">
        <ele>1011.3264</ele>
        <time>2010-02-27T09:57:34Z</time>
      </trkpt>
      <trkpt lat="46.495781" lon="13.534681">
        <ele>1010.412</ele>
        <time>2010-02-27T09:57:37Z</time>
      </trkpt>
      <trkpt lat="46.495746" lon="13.534613">
        <ele>1007.0592</ele>
        <time>2010-02-27T09:57:42Z</time>
      </trkpt>
      <trkpt lat="46.495739" lon="13.534609">
        <ele>1007.0592</ele>
        <time>2010-02-27T09:57:44Z</time>
      </trkpt>
      <trkpt lat="46.495718" lon="13.534569">
        <ele>1006.4496</ele>
        <time>2010-02-27T09:57:48Z</time>
      </trkpt>
      <trkpt lat="46.495701" lon="13.534552">
        <ele>1007.0592</ele>
        <time>2010-02-27T09:57:50Z</time>
      </trkpt>
      <trkpt lat="46.495668" lon="13.534525">
        <ele>1006.4496</ele>
        <time>2010-02-27T09:57:54Z</time>
      </trkpt>
      <trkpt lat="46.495630" lon="13.534499">
        <ele>1005.5352</ele>
        <time>2010-02-27T09:57:59Z</time>
      </trkpt>
      <trkpt lat="46.495597" lon="13.534473">
        <ele>1002.4872</ele>
        <time>2010-02-27T09:58:01Z</time>
      </trkpt>
      <trkpt lat="46.495571" lon="13.534453">
        <ele>1002.1824</ele>
        <time>2010-02-27T09:58:05Z</time>
      </trkpt>
      <trkpt lat="46.495536" lon="13.534428">
        <ele>1003.0968</ele>
        <time>2010-02-27T09:58:11Z</time>
      </trkpt>
      <trkpt lat="46.495504" lon="13.534417">
        <ele>1005.5352</ele>
        <time>2010-02-27T09:58:15Z</time>
      </trkpt>
      <trkpt lat="46.495461" lon="13.534378">
        <ele>1004.6208</ele>
        <time>2010-02-27T09:58:20Z</time>
      </trkpt>
      <trkpt lat="46.495427" lon="13.534359">
        <ele>1004.6208</ele>
        <time>2010-02-27T09:58:24Z</time>
      </trkpt>
      <trkpt lat="46.495397" lon="13.534344">
        <ele>1004.9256</ele>
        <time>2010-02-27T09:58:28Z</time>
      </trkpt>
      <trkpt lat="46.495361" lon="13.534361">
        <ele>1008.888</ele>
        <time>2010-02-27T09:58:31Z</time>
      </trkpt>
      <trkpt lat="46.495321" lon="13.534366">
        <ele>1012.8504</ele>
        <time>2010-02-27T09:58:35Z</time>
      </trkpt>
      <trkpt lat="46.495288" lon="13.534353">
        <ele>1012.2408</ele>
        <time>2010-02-27T09:58:39Z</time>
      </trkpt>
      <trkpt lat="46.495245" lon="13.534329">
        <ele>1010.412</ele>
        <time>2010-02-27T09:58:43Z</time>
      </trkpt>
      <trkpt lat="46.495200" lon="13.534325">
        <ele>1010.412</ele>
        <time>2010-02-27T09:58:48Z</time>
      </trkpt>
      <trkpt lat="46.495168" lon="13.534333">
        <ele>1012.2408</ele>
        <time>2010-02-27T09:58:53Z</time>
      </trkpt>
      <trkpt lat="46.495131" lon="13.534355">
        <ele>1018.032</ele>
        <time>2010-02-27T09:58:57Z</time>
      </trkpt>
      <trkpt lat="46.495086" lon="13.534379">
        <ele>1021.3848</ele>
        <time>2010-02-27T09:59:02Z</time>
      </trkpt>
      <trkpt lat="46.495054" lon="13.534388">
        <ele>1020.4704</ele>
        <time>2010-02-27T09:59:06Z</time>
      </trkpt>
      <trkpt lat="46.495024" lon="13.534369">
        <ele>1022.9088</ele>
        <time>2010-02-27T09:59:10Z</time>
      </trkpt>
      <trkpt lat="46.494988" lon="13.534383">
        <ele>1025.652</ele>
        <time>2010-02-27T09:59:14Z</time>
      </trkpt>
      <trkpt lat="46.494931" lon="13.534389">
        <ele>1032.3576</ele>
        <time>2010-02-27T09:59:22Z</time>
      </trkpt>
      <trkpt lat="46.494881" lon="13.534372">
        <ele>1034.4912</ele>
        <time>2010-02-27T09:59:28Z</time>
      </trkpt>
      <trkpt lat="46.494820" lon="13.534386">
        <ele>1039.9776</ele>
        <time>2010-02-27T09:59:34Z</time>
      </trkpt>
      <trkpt lat="46.494786" lon="13.534385">
        <ele>1039.6728</ele>
        <time>2010-02-27T09:59:38Z</time>
      </trkpt>
      <trkpt lat="46.49473" lon="13.534419">
        <ele>1042.1112</ele>
        <time>2010-02-27T09:59:45Z</time>
      </trkpt>
      <trkpt lat="46.494668" lon="13.534399">
        <ele>1043.94</ele>
        <time>2010-02-27T09:59:51Z</time>
      </trkpt>
      <trkpt lat="46.494612" lon="13.534391">
        <ele>1046.3784</ele>
        <time>2010-02-27T09:59:56Z</time>
      </trkpt>
      <trkpt lat="46.494549" lon="13.534370">
        <ele>1045.7688</ele>
        <time>2010-02-27T10:00:04Z</time>
      </trkpt>
      <trkpt lat="46.494518" lon="13.534361">
        <ele>1045.464</ele>
        <time>2010-02-27T10:00:08Z</time>
      </trkpt>
      <trkpt lat="46.494472" lon="13.534379">
        <ele>1051.2552</ele>
        <time>2010-02-27T10:00:14Z</time>
      </trkpt>
      <trkpt lat="46.494441" lon="13.534393">
        <ele>1056.132</ele>
        <time>2010-02-27T10:00:18Z</time>
      </trkpt>
      <trkpt lat="46.494411" lon="13.534399">
        <ele>1058.2656</ele>
        <time>2010-02-27T10:00:22Z</time>
      </trkpt>
      <trkpt lat="46.494367" lon="13.534363">
        <ele>1053.9984</ele>
        <time>2010-02-27T10:00:27Z</time>
      </trkpt>
      <trkpt lat="46.494332" lon="13.534346">
        <ele>1051.56</ele>
        <time>2010-02-27T10:00:32Z</time>
      </trkpt>
      <trkpt lat="46.494292" lon="13.534355">
        <ele>1055.5224</ele>
        <time>2010-02-27T10:00:39Z</time>
      </trkpt>
      <trkpt lat="46.494253" lon="13.534362">
        <ele>1061.3136</ele>
        <time>2010-02-27T10:00:43Z</time>
      </trkpt>
      <trkpt lat="46.494212" lon="13.534330">
        <ele>1057.9608</ele>
        <time>2010-02-27T10:00:47Z</time>
      </trkpt>
      <trkpt lat="46.494180" lon="13.534305">
        <ele>1054.9128</ele>
        <time>2010-02-27T10:00:51Z</time>
      </trkpt>
      <trkpt lat="46.494151" lon="13.534288">
        <ele>1053.9984</ele>
        <time>2010-02-27T10:00:55Z</time>
      </trkpt>
      <trkpt lat="46.494116" lon="13.534273">
        <ele>1050.3408</ele>
        <time>2010-02-27T10:01:01Z</time>
      </trkpt>
      <trkpt lat="46.494080" lon="13.534272">
        <ele>1052.1696</ele>
        <time>2010-02-27T10:01:05Z</time>
      </trkpt>
      <trkpt lat="46.494052" lon="13.534252">
        <ele>1051.56</ele>
        <time>2010-02-27T10:01:09Z</time>
      </trkpt>
      <trkpt lat="46.494021" lon="13.534265">
        <ele>1053.6936</ele>
        <time>2010-02-27T10:01:13Z</time>
      </trkpt>
      <trkpt lat="46.493993" lon="13.534245">
        <ele>1051.2552</ele>
        <time>2010-02-27T10:01:17Z</time>
      </trkpt>
      <trkpt lat="46.493952" lon="13.534227">
        <ele>1053.084</ele>
        <time>2010-02-27T10:01:21Z</time>
      </trkpt>
      <trkpt lat="46.493919" lon="13.534219">
        <ele>1053.9984</ele>
        <time>2010-02-27T10:01:25Z</time>
      </trkpt>
      <trkpt lat="46.493881" lon="13.534201">
        <ele>1051.56</ele>
        <time>2010-02-27T10:01:29Z</time>
      </trkpt>
      <trkpt lat="46.493851" lon="13.534184">
        <ele>1051.56</ele>
        <time>2010-02-27T10:01:33Z</time>
      </trkpt>
      <trkpt lat="46.493812" lon="13.534162">
        <ele>1052.1696</ele>
        <time>2010-02-27T10:01:37Z</time>
      </trkpt>
      <trkpt lat="46.493777" lon="13.53414">
        <ele>1049.1216</ele>
        <time>2010-02-27T10:01:41Z</time>
      </trkpt>
      <trkpt lat="46.493720" lon="13.534128">
        <ele>1046.988</ele>
        <time>2010-02-27T10:01:48Z</time>
      </trkpt>
      <trkpt lat="46.493673" lon="13.534139">
        <ele>1047.2928</ele>
        <time>2010-02-27T10:01:52Z</time>
      </trkpt>
      <trkpt lat="46.493662" lon="13.534134">
        <ele>1047.2928</ele>
        <time>2010-02-27T10:01:53Z</time>
      </trkpt>
      <trkpt lat="46.493589" lon="13.534096">
        <ele>1047.9024</ele>
        <time>2010-02-27T10:02:02Z</time>
      </trkpt>
      <trkpt lat="46.493562" lon="13.534093">
        <ele>1045.7688</ele>
        <time>2010-02-27T10:02:06Z</time>
      </trkpt>
      <trkpt lat="46.493530" lon="13.534095">
        <ele>1046.988</ele>
        <time>2010-02-27T10:02:10Z</time>
      </trkpt>
      <trkpt lat="46.493496" lon="13.534099">
        <ele>1049.1216</ele>
        <time>2010-02-27T10:02:14Z</time>
      </trkpt>
      <trkpt lat="46.493459" lon="13.534130">
        <ele>1056.132</ele>
        <time>2010-02-27T10:02:18Z</time>
      </trkpt>
      <trkpt lat="46.493431" lon="13.534148">
        <ele>1060.704</ele>
        <time>2010-02-27T10:02:20Z</time>
      </trkpt>
      <trkpt lat="46.493398" lon="13.534183">
        <ele>1065.5808</ele>
        <time>2010-02-27T10:02:23Z</time>
      </trkpt>
      <trkpt lat="46.493358" lon="13.534202">
        <ele>1068.6288</ele>
        <time>2010-02-27T10:02:29Z</time>
      </trkpt>
      <trkpt lat="46.493303" lon="13.534206">
        <ele>1071.9816</ele>
        <time>2010-02-27T10:02:35Z</time>
      </trkpt>
      <trkpt lat="46.493273" lon="13.534208">
        <ele>1075.6392</ele>
        <time>2010-02-27T10:02:39Z</time>
      </trkpt>
      <trkpt lat="46.493224" lon="13.534206">
        <ele>1087.2216</ele>
        <time>2010-02-27T10:02:46Z</time>
      </trkpt>
      <trkpt lat="46.493191" lon="13.534210">
        <ele>1093.6224</ele>
        <time>2010-02-27T10:02:50Z</time>
      </trkpt>
      <trkpt lat="46.493160" lon="13.534222">
        <ele>1100.6328</ele>
        <time>2010-02-27T10:02:54Z</time>
      </trkpt>
      <trkpt lat="46.493124" lon="13.534226">
        <ele>1106.1192</ele>
        <time>2010-02-27T10:02:58Z</time>
      </trkpt>
      <trkpt lat="46.493093" lon="13.534217">
        <ele>1105.5096</ele>
        <time>2010-02-27T10:03:01Z</time>
      </trkpt>
      <trkpt lat="46.493067" lon="13.534206">
        <ele>1102.7664</ele>
        <time>2010-02-27T10:03:05Z</time>
      </trkpt>
      <trkpt lat="46.493048" lon="13.534188">
        <ele>1095.756</ele>
        <time>2010-02-27T10:03:09Z</time>
      </trkpt>
      <trkpt lat="46.493017" lon="13.53417">
        <ele>1086.612</ele>
        <time>2010-02-27T10:03:14Z</time>
      </trkpt>
      <trkpt lat="46.492998" lon="13.534145">
        <ele>1078.6872</ele>
        <time>2010-02-27T10:03:18Z</time>
      </trkpt>
      <trkpt lat="46.492954" lon="13.534120">
        <ele>1071.9816</ele>
        <time>2010-02-27T10:03:25Z</time>
      </trkpt>
      <trkpt lat="46.492930" lon="13.534116">
        <ele>1071.9816</ele>
        <time>2010-02-27T10:03:28Z</time>
      </trkpt>
      <trkpt lat="46.492894" lon="13.534151">
        <ele>1074.7248</ele>
        <time>2010-02-27T10:03:33Z</time>
      </trkpt>
      <trkpt lat="46.492865" lon="13.534173">
        <ele>1078.992</ele>
        <time>2010-02-27T10:03:37Z</time>
      </trkpt>
      <trkpt lat="46.492836" lon="13.534187">
        <ele>1083.8688</ele>
        <time>2010-02-27T10:03:43Z</time>
      </trkpt>
      <trkpt lat="46.492804" lon="13.534204">
        <ele>1084.4784</ele>
        <time>2010-02-27T10:03:48Z</time>
      </trkpt>
      <trkpt lat="46.492777" lon="13.534208">
        <ele>1082.04</ele>
        <time>2010-02-27T10:03:52Z</time>
      </trkpt>
      <trkpt lat="46.492745" lon="13.534219">
        <ele>1081.4304</ele>
        <time>2010-02-27T10:03:58Z</time>
      </trkpt>
      <trkpt lat="46.492715" lon="13.534236">
        <ele>1082.9544</ele>
        <time>2010-02-27T10:04:03Z</time>
      </trkpt>
      <trkpt lat="46.492689" lon="13.534255">
        <ele>1084.7832</ele>
        <time>2010-02-27T10:04:07Z</time>
      </trkpt>
      <trkpt lat="46.492657" lon="13.534287">
        <ele>1089.0504</ele>
        <time>2010-02-27T10:04:11Z</time>
      </trkpt>
      <trkpt lat="46.492618" lon="13.534263">
        <ele>1083.8688</ele>
        <time>2010-02-27T10:04:18Z</time>
      </trkpt>
      <trkpt lat="46.492589" lon="13.534261">
        <ele>1082.04</ele>
        <time>2010-02-27T10:04:22Z</time>
      </trkpt>
      <trkpt lat="46.492561" lon="13.534273">
        <ele>1084.4784</ele>
        <time>2010-02-27T10:04:26Z</time>
      </trkpt>
      <trkpt lat="46.492511" lon="13.534294">
        <ele>1086.612</ele>
        <time>2010-02-27T10:04:33Z</time>
      </trkpt>
      <trkpt lat="46.492477" lon="13.534308">
        <ele>1087.2216</ele>
        <time>2010-02-27T10:04:38Z</time>
      </trkpt>
      <trkpt lat="46.492431" lon="13.534317">
        <ele>1083.8688</ele>
        <time>2010-02-27T10:04:44Z</time>
      </trkpt>
      <trkpt lat="46.492379" lon="13.534327">
        <ele>1082.3448</ele>
        <time>2010-02-27T10:04:49Z</time>
      </trkpt>
      <trkpt lat="46.492326" lon="13.534345">
        <ele>1082.04</ele>
        <time>2010-02-27T10:04:56Z</time>
      </trkpt>
      <trkpt lat="46.492274" lon="13.534345">
        <ele>1082.3448</ele>
        <time>2010-02-27T10:05:01Z</time>
      </trkpt>
      <trkpt lat="46.492221" lon="13.534360">
        <ele>1083.2592</ele>
        <time>2010-02-27T10:05:08Z</time>
      </trkpt>
      <trkpt lat="46.492166" lon="13.534370">
        <ele>1083.8688</ele>
        <time>2010-02-27T10:05:13Z</time>
      </trkpt>
      <trkpt lat="46.492110" lon="13.534396">
        <ele>1086.612</ele>
        <time>2010-02-27T10:05:20Z</time>
      </trkpt>
      <trkpt lat="46.492059" lon="13.534412">
        <ele>1086.612</ele>
        <time>2010-02-27T10:05:25Z</time>
      </trkpt>
      <trkpt lat="46.492006" lon="13.534427">
        <ele>1087.2216</ele>
        <time>2010-02-27T10:05:32Z</time>
      </trkpt>
      <trkpt lat="46.491964" lon="13.534443">
        <ele>1087.2216</ele>
        <time>2010-02-27T10:05:36Z</time>
      </trkpt>
      <trkpt lat="46.491912" lon="13.534446">
        <ele>1085.6976</ele>
        <time>2010-02-27T10:05:43Z</time>
      </trkpt>
      <trkpt lat="46.491863" lon="13.534444">
        <ele>1086.3072</ele>
        <time>2010-02-27T10:05:48Z</time>
      </trkpt>
      <trkpt lat="46.491818" lon="13.534457">
        <ele>1089.0504</ele>
        <time>2010-02-27T10:05:55Z</time>
      </trkpt>
      <trkpt lat="46.491771" lon="13.534461">
        <ele>1090.5744</ele>
        <time>2010-02-27T10:06:00Z</time>
      </trkpt>
      <trkpt lat="46.491725" lon="13.534459">
        <ele>1092.0984</ele>
        <time>2010-02-27T10:06:07Z</time>
      </trkpt>
      <trkpt lat="46.491678" lon="13.534484">
        <ele>1096.9752</ele>
        <time>2010-02-27T10:06:13Z</time>
      </trkpt>
      <trkpt lat="46.491615" lon="13.534496">
        <ele>1101.2424</ele>
        <time>2010-02-27T10:06:21Z</time>
      </trkpt>
      <trkpt lat="46.491571" lon="13.534482">
        <ele>1101.2424</ele>
        <time>2010-02-27T10:06:26Z</time>
      </trkpt>
      <trkpt lat="46.491533" lon="13.534474">
        <ele>1100.6328</ele>
        <time>2010-02-27T10:06:33Z</time>
      </trkpt>
      <trkpt lat="46.491484" lon="13.534465">
        <ele>1101.5472</ele>
        <time>2010-02-27T10:06:40Z</time>
      </trkpt>
      <trkpt lat="46.491450" lon="13.534453">
        <ele>1101.5472</ele>
        <time>2010-02-27T10:06:45Z</time>
      </trkpt>
      <trkpt lat="46.491411" lon="13.534454">
        <ele>1104.5952</ele>
        <time>2010-02-27T10:06:50Z</time>
      </trkpt>
      <trkpt lat="46.491375" lon="13.534444">
        <ele>1104.9</ele>
        <time>2010-02-27T10:06:56Z</time>
      </trkpt>
      <trkpt lat="46.491334" lon="13.534428">
        <ele>1105.5096</ele>
        <time>2010-02-27T10:07:01Z</time>
      </trkpt>
      <trkpt lat="46.491295" lon="13.534427">
        <ele>1107.948</ele>
        <time>2010-02-27T10:07:07Z</time>
      </trkpt>
      <trkpt lat="46.491255" lon="13.534433">
        <ele>1110.3864</ele>
        <time>2010-02-27T10:07:12Z</time>
      </trkpt>
      <trkpt lat="46.491223" lon="13.534436">
        <ele>1109.7768</ele>
        <time>2010-02-27T10:07:16Z</time>
      </trkpt>
      <trkpt lat="46.491180" lon="13.534426">
        <ele>1108.2528</ele>
        <time>2010-02-27T10:07:21Z</time>
      </trkpt>
      <trkpt lat="46.491137" lon="13.534418">
        <ele>1107.0336</ele>
        <time>2010-02-27T10:07:28Z</time>
      </trkpt>
      <trkpt lat="46.491089" lon="13.534423">
        <ele>1107.948</ele>
        <time>2010-02-27T10:07:34Z</time>
      </trkpt>
      <trkpt lat="46.491050" lon="13.534409">
        <ele>1107.948</ele>
        <time>2010-02-27T10:07:39Z</time>
      </trkpt>
      <trkpt lat="46.490994" lon="13.534389">
        <ele>1109.7768</ele>
        <time>2010-02-27T10:07:46Z</time>
      </trkpt>
      <trkpt lat="46.490962" lon="13.534377">
        <ele>1111.3008</ele>
        <time>2010-02-27T10:07:50Z</time>
      </trkpt>
      <trkpt lat="46.490923" lon="13.534362">
        <ele>1114.6536</ele>
        <time>2010-02-27T10:07:55Z</time>
      </trkpt>
      <trkpt lat="46.490887" lon="13.53437">
        <ele>1119.8352</ele>
        <time>2010-02-27T10:07:59Z</time>
      </trkpt>
      <trkpt lat="46.490843" lon="13.534370">
        <ele>1124.712</ele>
        <time>2010-02-27T10:08:05Z</time>
      </trkpt>
      <trkpt lat="46.490809" lon="13.534335">
        <ele>1122.8832</ele>
        <time>2010-02-27T10:08:10Z</time>
      </trkpt>
      <trkpt lat="46.490781" lon="13.534310">
        <ele>1122.2736</ele>
        <time>2010-02-27T10:08:14Z</time>
      </trkpt>
      <trkpt lat="46.490741" lon="13.534285">
        <ele>1118.9208</ele>
        <time>2010-02-27T10:08:20Z</time>
      </trkpt>
      <trkpt lat="46.490713" lon="13.534272">
        <ele>1122.2736</ele>
        <time>2010-02-27T10:08:25Z</time>
      </trkpt>
      <trkpt lat="46.490677" lon="13.534245">
        <ele>1123.188</ele>
        <time>2010-02-27T10:08:30Z</time>
      </trkpt>
      <trkpt lat="46.490632" lon="13.53424">
        <ele>1126.236</ele>
        <time>2010-02-27T10:08:37Z</time>
      </trkpt>
      <trkpt lat="46.490595" lon="13.534249">
        <ele>1128.0648</ele>
        <time>2010-02-27T10:08:41Z</time>
      </trkpt>
      <trkpt lat="46.490554" lon="13.534208">
        <ele>1126.236</ele>
        <time>2010-02-27T10:08:45Z</time>
      </trkpt>
      <trkpt lat="46.490526" lon="13.534192">
        <ele>1126.5408</ele>
        <time>2010-02-27T10:08:49Z</time>
      </trkpt>
      <trkpt lat="46.490480" lon="13.534172">
        <ele>1124.712</ele>
        <time>2010-02-27T10:08:55Z</time>
      </trkpt>
      <trkpt lat="46.490432" lon="13.534163">
        <ele>1125.3216</ele>
        <time>2010-02-27T10:09:01Z</time>
      </trkpt>
      <trkpt lat="46.490363" lon="13.534145">
        <ele>1126.236</ele>
        <time>2010-02-27T10:09:11Z</time>
      </trkpt>
      <trkpt lat="46.490316" lon="13.534138">
        <ele>1127.76</ele>
        <time>2010-02-27T10:09:18Z</time>
      </trkpt>
      <trkpt lat="46.490289" lon="13.53413">
        <ele>1128.6744</ele>
        <time>2010-02-27T10:09:22Z</time>
      </trkpt>
      <trkpt lat="46.490245" lon="13.534105">
        <ele>1129.5888</ele>
        <time>2010-02-27T10:09:27Z</time>
      </trkpt>
      <trkpt lat="46.490210" lon="13.534107">
        <ele>1129.5888</ele>
        <time>2010-02-27T10:09:32Z</time>
      </trkpt>
      <trkpt lat="46.490171" lon="13.534109">
        <ele>1129.8936</ele>
        <time>2010-02-27T10:09:38Z</time>
      </trkpt>
      <trkpt lat="46.490115" lon="13.534100">
        <ele>1131.1128</ele>
        <time>2010-02-27T10:09:45Z</time>
      </trkpt>
      <trkpt lat="46.49006" lon="13.534085">
        <ele>1131.1128</ele>
        <time>2010-02-27T10:09:51Z</time>
      </trkpt>
      <trkpt lat="46.490009" lon="13.534099">
        <ele>1133.856</ele>
        <time>2010-02-27T10:09:58Z</time>
      </trkpt>
      <trkpt lat="46.489953" lon="13.534088">
        <ele>1134.4656</ele>
        <time>2010-02-27T10:10:06Z</time>
      </trkpt>
      <trkpt lat="46.489932" lon="13.534093">
        <ele>1135.6848</ele>
        <time>2010-02-27T10:10:10Z</time>
      </trkpt>
      <trkpt lat="46.489893" lon="13.534086">
        <ele>1136.2944</ele>
        <time>2010-02-27T10:10:14Z</time>
      </trkpt>
      <trkpt lat="46.489870" lon="13.534083">
        <ele>1137.8184</ele>
        <time>2010-02-27T10:10:18Z</time>
      </trkpt>
      <trkpt lat="46.489833" lon="13.534063">
        <ele>1137.8184</ele>
        <time>2010-02-27T10:10:25Z</time>
      </trkpt>
      <trkpt lat="46.489806" lon="13.534046">
        <ele>1138.1232</ele>
        <time>2010-02-27T10:10:29Z</time>
      </trkpt>
      <trkpt lat="46.489781" lon="13.534007">
        <ele>1138.1232</ele>
        <time>2010-02-27T10:10:35Z</time>
      </trkpt>
      <trkpt lat="46.489767" lon="13.533953">
        <ele>1134.4656</ele>
        <time>2010-02-27T10:10:40Z</time>
      </trkpt>
      <trkpt lat="46.489741" lon="13.533965">
        <ele>1138.7328</ele>
        <time>2010-02-27T10:10:44Z</time>
      </trkpt>
      <trkpt lat="46.489703" lon="13.533991">
        <ele>1148.1816</ele>
        <time>2010-02-27T10:10:48Z</time>
      </trkpt>
      <trkpt lat="46.489654" lon="13.534010">
        <ele>1154.5824</ele>
        <time>2010-02-27T10:10:55Z</time>
      </trkpt>
      <trkpt lat="46.489620" lon="13.534020">
        <ele>1161.288</ele>
        <time>2010-02-27T10:11:00Z</time>
      </trkpt>
      <trkpt lat="46.489551" lon="13.534070">
        <ele>1169.8224</ele>
        <time>2010-02-27T10:11:06Z</time>
      </trkpt>
      <trkpt lat="46.489527" lon="13.534051">
        <ele>1171.3464</ele>
        <time>2010-02-27T10:11:11Z</time>
      </trkpt>
      <trkpt lat="46.489495" lon="13.534082">
        <ele>1180.4904</ele>
        <time>2010-02-27T10:11:15Z</time>
      </trkpt>
      <trkpt lat="46.48948" lon="13.534094">
        <ele>1192.3776</ele>
        <time>2010-02-27T10:11:22Z</time>
      </trkpt>
      <trkpt lat="46.489446" lon="13.534105">
        <ele>1199.6928</ele>
        <time>2010-02-27T10:11:27Z</time>
      </trkpt>
      <trkpt lat="46.489394" lon="13.534039">
        <ele>1205.484</ele>
        <time>2010-02-27T10:11:34Z</time>
      </trkpt>
      <trkpt lat="46.489370" lon="13.534008">
        <ele>1203.96</ele>
        <time>2010-02-27T10:11:38Z</time>
      </trkpt>
      <trkpt lat="46.489353" lon="13.534002">
        <ele>1207.008</ele>
        <time>2010-02-27T10:11:42Z</time>
      </trkpt>
      <trkpt lat="46.489346" lon="13.533969">
        <ele>1204.5696</ele>
        <time>2010-02-27T10:11:46Z</time>
      </trkpt>
      <trkpt lat="46.489315" lon="13.533937">
        <ele>1203.0456</ele>
        <time>2010-02-27T10:11:50Z</time>
      </trkpt>
      <trkpt lat="46.489298" lon="13.533882">
        <ele>1202.1312</ele>
        <time>2010-02-27T10:11:54Z</time>
      </trkpt>
      <trkpt lat="46.489272" lon="13.533806">
        <ele>1193.5968</ele>
        <time>2010-02-27T10:11:58Z</time>
      </trkpt>
      <trkpt lat="46.489255" lon="13.533764">
        <ele>1191.1584</ele>
        <time>2010-02-27T10:12:05Z</time>
      </trkpt>
      <trkpt lat="46.489230" lon="13.533781">
        <ele>1195.4256</ele>
        <time>2010-02-27T10:12:09Z</time>
      </trkpt>
      <trkpt lat="46.489205" lon="13.533752">
        <ele>1192.3776</ele>
        <time>2010-02-27T10:12:13Z</time>
      </trkpt>
      <trkpt lat="46.489193" lon="13.533695">
        <ele>1187.196</ele>
        <time>2010-02-27T10:12:17Z</time>
      </trkpt>
      <trkpt lat="46.489178" lon="13.533657">
        <ele>1183.2336</ele>
        <time>2010-02-27T10:12:20Z</time>
      </trkpt>
      <trkpt lat="46.489161" lon="13.533618">
        <ele>1181.1</ele>
        <time>2010-02-27T10:12:24Z</time>
      </trkpt>
      <trkpt lat="46.489150" lon="13.533595">
        <ele>1183.2336</ele>
        <time>2010-02-27T10:12:28Z</time>
      </trkpt>
      <trkpt lat="46.489122" lon="13.533585">
        <ele>1186.2816</ele>
        <time>2010-02-27T10:12:32Z</time>
      </trkpt>
      <trkpt lat="46.489118" lon="13.533553">
        <ele>1187.196</ele>
        <time>2010-02-27T10:12:35Z</time>
      </trkpt>
      <trkpt lat="46.489103" lon="13.533483">
        <ele>1185.3672</ele>
        <time>2010-02-27T10:12:40Z</time>
      </trkpt>
      <trkpt lat="46.489082" lon="13.533466">
        <ele>1189.6344</ele>
        <time>2010-02-27T10:12:44Z</time>
      </trkpt>
      <trkpt lat="46.489073" lon="13.533443">
        <ele>1192.0728</ele>
        <time>2010-02-27T10:12:48Z</time>
      </trkpt>
      <trkpt lat="46.489062" lon="13.533441">
        <ele>1195.4256</ele>
        <time>2010-02-27T10:12:52Z</time>
      </trkpt>
      <trkpt lat="46.489043" lon="13.533390">
        <ele>1194.5112</ele>
        <time>2010-02-27T10:12:55Z</time>
      </trkpt>
      <trkpt lat="46.489025" lon="13.533348">
        <ele>1193.9016</ele>
        <time>2010-02-27T10:12:59Z</time>
      </trkpt>
      <trkpt lat="46.489008" lon="13.533346">
        <ele>1202.7408</ele>
        <time>2010-02-27T10:13:06Z</time>
      </trkpt>
      <trkpt lat="46.488994" lon="13.533326">
        <ele>1203.6552</ele>
        <time>2010-02-27T10:13:10Z</time>
      </trkpt>
      <trkpt lat="46.488911" lon="13.533238">
        <ele>1218.5904</ele>
        <time>2010-02-27T10:13:34Z</time>
      </trkpt>
      <trkpt lat="46.488897" lon="13.533190">
        <ele>1218.5904</ele>
        <time>2010-02-27T10:13:38Z</time>
      </trkpt>
      <trkpt lat="46.488877" lon="13.533122">
        <ele>1214.628</ele>
        <time>2010-02-27T10:13:42Z</time>
      </trkpt>
      <trkpt lat="46.488845" lon="13.533079">
        <ele>1212.1896</ele>
        <time>2010-02-27T10:13:46Z</time>
      </trkpt>
      <trkpt lat="46.488798" lon="13.533049">
        <ele>1207.008</ele>
        <time>2010-02-27T10:13:52Z</time>
      </trkpt>
      <trkpt lat="46.488756" lon="13.533032">
        <ele>1200.6072</ele>
        <time>2010-02-27T10:13:57Z</time>
      </trkpt>
      <trkpt lat="46.488738" lon="13.533000">
        <ele>1192.9872</ele>
        <time>2010-02-27T10:14:05Z</time>
      </trkpt>
      <trkpt lat="46.488723" lon="13.533043">
        <ele>1193.5968</ele>
        <time>2010-02-27T10:14:08Z</time>
      </trkpt>
      <trkpt lat="46.488710" lon="13.533072">
        <ele>1192.9872</ele>
        <time>2010-02-27T10:14:12Z</time>
      </trkpt>
      <trkpt lat="46.488694" lon="13.533086">
        <ele>1192.3776</ele>
        <time>2010-02-27T10:14:15Z</time>
      </trkpt>
      <trkpt lat="46.488665" lon="13.533096">
        <ele>1191.1584</ele>
        <time>2010-02-27T10:14:19Z</time>
      </trkpt>
      <trkpt lat="46.488641" lon="13.533104">
        <ele>1191.1584</ele>
        <time>2010-02-27T10:14:23Z</time>
      </trkpt>
      <trkpt lat="46.488612" lon="13.533123">
        <ele>1192.0728</ele>
        <time>2010-02-27T10:14:27Z</time>
      </trkpt>
      <trkpt lat="46.488582" lon="13.533141">
        <ele>1194.5112</ele>
        <time>2010-02-27T10:14:31Z</time>
      </trkpt>
      <trkpt lat="46.488552" lon="13.533164">
        <ele>1196.34</ele>
        <time>2010-02-27T10:14:33Z</time>
      </trkpt>
      <trkpt lat="46.488499" lon="13.533228">
        <ele>1204.8744</ele>
        <time>2010-02-27T10:14:38Z</time>
      </trkpt>
      <trkpt lat="46.488439" lon="13.533298">
        <ele>1210.3608</ele>
        <time>2010-02-27T10:14:43Z</time>
      </trkpt>
      <trkpt lat="46.488397" lon="13.533358">
        <ele>1211.2752</ele>
        <time>2010-02-27T10:14:48Z</time>
      </trkpt>
      <trkpt lat="46.488391" lon="13.533365">
        <ele>1210.6656</ele>
        <time>2010-02-27T10:14:50Z</time>
      </trkpt>
      <trkpt lat="46.488350" lon="13.533405">
        <ele>1211.2752</ele>
        <time>2010-02-27T10:14:55Z</time>
      </trkpt>
      <trkpt lat="46.488301" lon="13.533462">
        <ele>1216.152</ele>
        <time>2010-02-27T10:15:00Z</time>
      </trkpt>
      <trkpt lat="46.488263" lon="13.533462">
        <ele>1212.7992</ele>
        <time>2010-02-27T10:15:06Z</time>
      </trkpt>
      <trkpt lat="46.488220" lon="13.533465">
        <ele>1206.3984</ele>
        <time>2010-02-27T10:15:11Z</time>
      </trkpt>
      <trkpt lat="46.488186" lon="13.533476">
        <ele>1202.7408</ele>
        <time>2010-02-27T10:15:17Z</time>
      </trkpt>
      <trkpt lat="46.488154" lon="13.533489">
        <ele>1199.6928</ele>
        <time>2010-02-27T10:15:21Z</time>
      </trkpt>
      <trkpt lat="46.488112" lon="13.533512">
        <ele>1196.9496</ele>
        <time>2010-02-27T10:15:26Z</time>
      </trkpt>
      <trkpt lat="46.488082" lon="13.533538">
        <ele>1196.34</ele>
        <time>2010-02-27T10:15:30Z</time>
      </trkpt>
      <trkpt lat="46.488035" lon="13.533593">
        <ele>1196.9496</ele>
        <time>2010-02-27T10:15:36Z</time>
      </trkpt>
      <trkpt lat="46.487986" lon="13.533639">
        <ele>1197.864</ele>
        <time>2010-02-27T10:15:41Z</time>
      </trkpt>
      <trkpt lat="46.487939" lon="13.533695">
        <ele>1199.0832</ele>
        <time>2010-02-27T10:15:48Z</time>
      </trkpt>
      <trkpt lat="46.487909" lon="13.533723">
        <ele>1199.6928</ele>
        <time>2010-02-27T10:15:52Z</time>
      </trkpt>
      <trkpt lat="46.487882" lon="13.533757">
        <ele>1200.6072</ele>
        <time>2010-02-27T10:15:57Z</time>
      </trkpt>
      <trkpt lat="46.487861" lon="13.533791">
        <ele>1199.6928</ele>
        <time>2010-02-27T10:16:01Z</time>
      </trkpt>
      <trkpt lat="46.487820" lon="13.533896">
        <ele>1203.96</ele>
        <time>2010-02-27T10:16:08Z</time>
      </trkpt>
      <trkpt lat="46.487793" lon="13.533942">
        <ele>1203.0456</ele>
        <time>2010-02-27T10:16:15Z</time>
      </trkpt>
      <trkpt lat="46.487764" lon="13.533965">
        <ele>1206.0936</ele>
        <time>2010-02-27T10:16:20Z</time>
      </trkpt>
      <trkpt lat="46.487743" lon="13.533970">
        <ele>1210.3608</ele>
        <time>2010-02-27T10:16:35Z</time>
      </trkpt>
      <trkpt lat="46.487716" lon="13.534010">
        <ele>1209.4464</ele>
        <time>2010-02-27T10:16:53Z</time>
      </trkpt>
      <trkpt lat="46.487699" lon="13.534000">
        <ele>1210.3608</ele>
        <time>2010-02-27T10:16:58Z</time>
      </trkpt>
      <trkpt lat="46.487689" lon="13.534001">
        <ele>1210.3608</ele>
        <time>2010-02-27T10:16:59Z</time>
      </trkpt>
      <trkpt lat="46.487650" lon="13.533973">
        <ele>1208.2272</ele>
        <time>2010-02-27T10:17:03Z</time>
      </trkpt>
      <trkpt lat="46.487658" lon="13.533916">
        <ele>1206.3984</ele>
        <time>2010-02-27T10:17:10Z</time>
      </trkpt>
      <trkpt lat="46.487692" lon="13.533880">
        <ele>1200.6072</ele>
        <time>2010-02-27T10:17:29Z</time>
      </trkpt>
      <trkpt lat="46.487646" lon="13.533821">
        <ele>1203.0456</ele>
        <time>2010-02-27T10:17:34Z</time>
      </trkpt>
      <trkpt lat="46.487596" lon="13.533770">
        <ele>1204.5696</ele>
        <time>2010-02-27T10:17:38Z</time>
      </trkpt>
      <trkpt lat="46.487535" lon="13.533760">
        <ele>1203.6552</ele>
        <time>2010-02-27T10:17:45Z</time>
      </trkpt>
      <trkpt lat="46.487484" lon="13.533804">
        <ele>1204.5696</ele>
        <time>2010-02-27T10:17:52Z</time>
      </trkpt>
      <trkpt lat="46.487459" lon="13.533817">
        <ele>1204.5696</ele>
        <time>2010-02-27T10:17:55Z</time>
      </trkpt>
      <trkpt lat="46.487428" lon="13.533852">
        <ele>1207.9224</ele>
        <time>2010-02-27T10:18:00Z</time>
      </trkpt>
      <trkpt lat="46.487436" lon="13.533839">
        <ele>1207.9224</ele>
        <time>2010-02-27T10:18:00Z</time>
      </trkpt>
      <trkpt lat="46.487406" lon="13.533824">
        <ele>1209.4464</ele>
        <time>2010-02-27T10:18:05Z</time>
      </trkpt>
      <trkpt lat="46.487360" lon="13.533834">
        <ele>1211.58</ele>
        <time>2010-02-27T10:18:11Z</time>
      </trkpt>
      <trkpt lat="46.487360" lon="13.533800">
        <ele>1214.0184</ele>
        <time>2010-02-27T10:18:16Z</time>
      </trkpt>
      <trkpt lat="46.487311" lon="13.533775">
        <ele>1215.5424</ele>
        <time>2010-02-27T10:18:23Z</time>
      </trkpt>
      <trkpt lat="46.487278" lon="13.533787">
        <ele>1219.8096</ele>
        <time>2010-02-27T10:18:27Z</time>
      </trkpt>
      <trkpt lat="46.487242" lon="13.533807">
        <ele>1220.724</ele>
        <time>2010-02-27T10:18:30Z</time>
      </trkpt>
      <trkpt lat="46.487201" lon="13.533760">
        <ele>1218.5904</ele>
        <time>2010-02-27T10:18:35Z</time>
      </trkpt>
      <trkpt lat="46.487212" lon="13.533695">
        <ele>1218.5904</ele>
        <time>2010-02-27T10:18:39Z</time>
      </trkpt>
      <trkpt lat="46.487216" lon="13.533628">
        <ele>1218.5904</ele>
        <time>2010-02-27T10:18:45Z</time>
      </trkpt>
      <trkpt lat="46.487197" lon="13.533600">
        <ele>1218.5904</ele>
        <time>2010-02-27T10:18:49Z</time>
      </trkpt>
      <trkpt lat="46.487152" lon="13.533600">
        <ele>1219.8096</ele>
        <time>2010-02-27T10:18:51Z</time>
      </trkpt>
      <trkpt lat="46.487109" lon="13.533560">
        <ele>1220.4192</ele>
        <time>2010-02-27T10:18:57Z</time>
      </trkpt>
      <trkpt lat="46.487097" lon="13.533539">
        <ele>1220.4192</ele>
        <time>2010-02-27T10:19:01Z</time>
      </trkpt>
      <trkpt lat="46.487054" lon="13.533537">
        <ele>1220.4192</ele>
        <time>2010-02-27T10:19:06Z</time>
      </trkpt>
      <trkpt lat="46.48704" lon="13.533498">
        <ele>1221.9432</ele>
        <time>2010-02-27T10:19:09Z</time>
      </trkpt>
      <trkpt lat="46.487010" lon="13.533482">
        <ele>1225.296</ele>
        <time>2010-02-27T10:19:12Z</time>
      </trkpt>
      <trkpt lat="46.486980" lon="13.533450">
        <ele>1227.7344</ele>
        <time>2010-02-27T10:19:17Z</time>
      </trkpt>
      <trkpt lat="46.486999" lon="13.533419">
        <ele>1227.7344</ele>
        <time>2010-02-27T10:19:20Z</time>
      </trkpt>
      <trkpt lat="46.486981" lon="13.533404">
        <ele>1228.6488</ele>
        <time>2010-02-27T10:19:25Z</time>
      </trkpt>
      <trkpt lat="46.486854" lon="13.533459">
        <ele>1228.6488</ele>
        <time>2010-02-27T10:19:30Z</time>
      </trkpt>
      <trkpt lat="46.486845" lon="13.533455">
        <ele>1228.6488</ele>
        <time>2010-02-27T10:19:33Z</time>
      </trkpt>
      <trkpt lat="46.486808" lon="13.533423">
        <ele>1229.5632</ele>
        <time>2010-02-27T10:19:37Z</time>
      </trkpt>
      <trkpt lat="46.486807" lon="13.533374">
        <ele>1231.0872</ele>
        <time>2010-02-27T10:19:43Z</time>
      </trkpt>
      <trkpt lat="46.486786" lon="13.533299">
        <ele>1229.5632</ele>
        <time>2010-02-27T10:19:47Z</time>
      </trkpt>
      <trkpt lat="46.486734" lon="13.533228">
        <ele>1230.4776</ele>
        <time>2010-02-27T10:19:53Z</time>
      </trkpt>
      <trkpt lat="46.486737" lon="13.533152">
        <ele>1231.0872</ele>
        <time>2010-02-27T10:19:59Z</time>
      </trkpt>
      <trkpt lat="46.486751" lon="13.533071">
        <ele>1232.3064</ele>
        <time>2010-02-27T10:20:03Z</time>
      </trkpt>
      <trkpt lat="46.486733" lon="13.533015">
        <ele>1234.7448</ele>
        <time>2010-02-27T10:20:07Z</time>
      </trkpt>
      <trkpt lat="46.486723" lon="13.532956">
        <ele>1233.8304</ele>
        <time>2010-02-27T10:20:12Z</time>
      </trkpt>
      <trkpt lat="46.486717" lon="13.532941">
        <ele>1233.2208</ele>
        <time>2010-02-27T10:20:14Z</time>
      </trkpt>
      <trkpt lat="46.486679" lon="13.532873">
        <ele>1233.8304</ele>
        <time>2010-02-27T10:20:18Z</time>
      </trkpt>
      <trkpt lat="46.486642" lon="13.532772">
        <ele>1234.7448</ele>
        <time>2010-02-27T10:20:24Z</time>
      </trkpt>
      <trkpt lat="46.486633" lon="13.532694">
        <ele>1237.7928</ele>
        <time>2010-02-27T10:20:30Z</time>
      </trkpt>
      <trkpt lat="46.486637" lon="13.532616">
        <ele>1239.012</ele>
        <time>2010-02-27T10:20:34Z</time>
      </trkpt>
      <trkpt lat="46.486601" lon="13.532555">
        <ele>1239.012</ele>
        <time>2010-02-27T10:20:41Z</time>
      </trkpt>
      <trkpt lat="46.48659" lon="13.532542">
        <ele>1239.6216</ele>
        <time>2010-02-27T10:20:42Z</time>
      </trkpt>
      <trkpt lat="46.486588" lon="13.532500">
        <ele>1236.5736</ele>
        <time>2010-02-27T10:20:47Z</time>
      </trkpt>
      <trkpt lat="46.486556" lon="13.532511">
        <ele>1236.5736</ele>
        <time>2010-02-27T10:20:50Z</time>
      </trkpt>
      <trkpt lat="46.486537" lon="13.532544">
        <ele>1238.0976</ele>
        <time>2010-02-27T10:20:58Z</time>
      </trkpt>
      <trkpt lat="46.486545" lon="13.532559">
        <ele>1239.012</ele>
        <time>2010-02-27T10:21:01Z</time>
      </trkpt>
      <trkpt lat="46.486530" lon="13.532638">
        <ele>1246.3272</ele>
        <time>2010-02-27T10:21:05Z</time>
      </trkpt>
      <trkpt lat="46.486522" lon="13.532708">
        <ele>1254.5568</ele>
        <time>2010-02-27T10:21:09Z</time>
      </trkpt>
      <trkpt lat="46.486452" lon="13.532852">
        <ele>1267.0536</ele>
        <time>2010-02-27T10:21:14Z</time>
      </trkpt>
      <trkpt lat="46.486415" lon="13.532977">
        <ele>1278.0264</ele>
        <time>2010-02-27T10:21:21Z</time>
      </trkpt>
      <trkpt lat="46.486368" lon="13.533074">
        <ele>1283.8176</ele>
        <time>2010-02-27T10:21:25Z</time>
      </trkpt>
      <trkpt lat="46.486360" lon="13.533076">
        <ele>1283.208</ele>
        <time>2010-02-27T10:21:27Z</time>
      </trkpt>
      <trkpt lat="46.486340" lon="13.533054">
        <ele>1277.112</ele>
        <time>2010-02-27T10:21:32Z</time>
      </trkpt>
      <trkpt lat="46.486300" lon="13.533053">
        <ele>1275.588</ele>
        <time>2010-02-27T10:21:36Z</time>
      </trkpt>
      <trkpt lat="46.486263" lon="13.533081">
        <ele>1278.0264</ele>
        <time>2010-02-27T10:21:41Z</time>
      </trkpt>
      <trkpt lat="46.486253" lon="13.532999">
        <ele>1273.1496</ele>
        <time>2010-02-27T10:21:45Z</time>
      </trkpt>
      <trkpt lat="46.48626" lon="13.532907">
        <ele>1271.3208</ele>
        <time>2010-02-27T10:21:51Z</time>
      </trkpt>
      <trkpt lat="46.486287" lon="13.532783">
        <ele>1266.1392</ele>
        <time>2010-02-27T10:21:56Z</time>
      </trkpt>
      <trkpt lat="46.486252" lon="13.532734">
        <ele>1265.5296</ele>
        <time>2010-02-27T10:22:02Z</time>
      </trkpt>
      <trkpt lat="46.486246" lon="13.532729">
        <ele>1266.1392</ele>
        <time>2010-02-27T10:22:03Z</time>
      </trkpt>
      <trkpt lat="46.486251" lon="13.532647">
        <ele>1265.2248</ele>
        <time>2010-02-27T10:22:07Z</time>
      </trkpt>
      <trkpt lat="46.486190" lon="13.532666">
        <ele>1267.3584</ele>
        <time>2010-02-27T10:22:12Z</time>
      </trkpt>
      <trkpt lat="46.486174" lon="13.532622">
        <ele>1267.0536</ele>
        <time>2010-02-27T10:22:18Z</time>
      </trkpt>
      <trkpt lat="46.486164" lon="13.532598">
        <ele>1267.0536</ele>
        <time>2010-02-27T10:22:22Z</time>
      </trkpt>
      <trkpt lat="46.486127" lon="13.532583">
        <ele>1267.0536</ele>
        <time>2010-02-27T10:22:29Z</time>
      </trkpt>
      <trkpt lat="46.486094" lon="13.532571">
        <ele>1267.3584</ele>
        <time>2010-02-27T10:22:33Z</time>
      </trkpt>
      <trkpt lat="46.486051" lon="13.532569">
        <ele>1267.968</ele>
        <time>2010-02-27T10:22:37Z</time>
      </trkpt>
      <trkpt lat="46.486015" lon="13.532575">
        <ele>1269.492</ele>
        <time>2010-02-27T10:22:39Z</time>
      </trkpt>
      <trkpt lat="46.485971" lon="13.532559">
        <ele>1270.4064</ele>
        <time>2010-02-27T10:22:44Z</time>
      </trkpt>
      <trkpt lat="46.485912" lon="13.532543">
        <ele>1271.9304</ele>
        <time>2010-02-27T10:22:49Z</time>
      </trkpt>
      <trkpt lat="46.485885" lon="13.532562">
        <ele>1272.8448</ele>
        <time>2010-02-27T10:22:53Z</time>
      </trkpt>
      <trkpt lat="46.485860" lon="13.532559">
        <ele>1271.9304</ele>
        <time>2010-02-27T10:22:57Z</time>
      </trkpt>
      <trkpt lat="46.485815" lon="13.532562">
        <ele>1273.7592</ele>
        <time>2010-02-27T10:23:02Z</time>
      </trkpt>
      <trkpt lat="46.485771" lon="13.532578">
        <ele>1277.112</ele>
        <time>2010-02-27T10:23:08Z</time>
      </trkpt>
      <trkpt lat="46.485723" lon="13.532594">
        <ele>1279.5504</ele>
        <time>2010-02-27T10:23:13Z</time>
      </trkpt>
      <trkpt lat="46.485703" lon="13.532604">
        <ele>1281.0744</ele>
        <time>2010-02-27T10:23:15Z</time>
      </trkpt>
      <trkpt lat="46.485679" lon="13.53256">
        <ele>1283.208</ele>
        <time>2010-02-27T10:23:20Z</time>
      </trkpt>
      <trkpt lat="46.485655" lon="13.532527">
        <ele>1284.732</ele>
        <time>2010-02-27T10:23:25Z</time>
      </trkpt>
      <trkpt lat="46.485624" lon="13.532510">
        <ele>1285.3416</ele>
        <time>2010-02-27T10:23:29Z</time>
      </trkpt>
      <trkpt lat="46.485585" lon="13.532498">
        <ele>1286.5608</ele>
        <time>2010-02-27T10:23:33Z</time>
      </trkpt>
      <trkpt lat="46.485549" lon="13.532503">
        <ele>1288.9992</ele>
        <time>2010-02-27T10:23:38Z</time>
      </trkpt>
      <trkpt lat="46.485530" lon="13.532426">
        <ele>1289.6088</ele>
        <time>2010-02-27T10:23:43Z</time>
      </trkpt>
      <trkpt lat="46.485514" lon="13.532403">
        <ele>1290.2184</ele>
        <time>2010-02-27T10:23:44Z</time>
      </trkpt>
      <trkpt lat="46.485459" lon="13.532337">
        <ele>1289.6088</ele>
        <time>2010-02-27T10:23:51Z</time>
      </trkpt>
      <trkpt lat="46.485437" lon="13.532316">
        <ele>1291.4376</ele>
        <time>2010-02-27T10:23:55Z</time>
      </trkpt>
      <trkpt lat="46.485417" lon="13.532304">
        <ele>1291.1328</ele>
        <time>2010-02-27T10:23:59Z</time>
      </trkpt>
      <trkpt lat="46.485390" lon="13.532287">
        <ele>1290.5232</ele>
        <time>2010-02-27T10:24:03Z</time>
      </trkpt>
      <trkpt lat="46.485353" lon="13.532287">
        <ele>1289.6088</ele>
        <time>2010-02-27T10:24:09Z</time>
      </trkpt>
      <trkpt lat="46.485325" lon="13.532282">
        <ele>1289.6088</ele>
        <time>2010-02-27T10:24:14Z</time>
      </trkpt>
      <trkpt lat="46.485311" lon="13.532287">
        <ele>1290.2184</ele>
        <time>2010-02-27T10:24:15Z</time>
      </trkpt>
      <trkpt lat="46.485272" lon="13.532306">
        <ele>1292.352</ele>
        <time>2010-02-27T10:24:21Z</time>
      </trkpt>
      <trkpt lat="46.485238" lon="13.532303">
        <ele>1292.9616</ele>
        <time>2010-02-27T10:24:26Z</time>
      </trkpt>
      <trkpt lat="46.485218" lon="13.532306">
        <ele>1293.5712</ele>
        <time>2010-02-27T10:24:30Z</time>
      </trkpt>
      <trkpt lat="46.485171" lon="13.532317">
        <ele>1294.7904</ele>
        <time>2010-02-27T10:24:34Z</time>
      </trkpt>
      <trkpt lat="46.485132" lon="13.532308">
        <ele>1297.8384</ele>
        <time>2010-02-27T10:24:40Z</time>
      </trkpt>
      <trkpt lat="46.485105" lon="13.532329">
        <ele>1298.1432</ele>
        <time>2010-02-27T10:24:44Z</time>
      </trkpt>
      <trkpt lat="46.485089" lon="13.532352">
        <ele>1302.1056</ele>
        <time>2010-02-27T10:24:49Z</time>
      </trkpt>
      <trkpt lat="46.485069" lon="13.532411">
        <ele>1305.4584</ele>
        <time>2010-02-27T10:24:56Z</time>
      </trkpt>
      <trkpt lat="46.485067" lon="13.532441">
        <ele>1303.9344</ele>
        <time>2010-02-27T10:25:01Z</time>
      </trkpt>
      <trkpt lat="46.485095" lon="13.532470">
        <ele>1300.5816</ele>
        <time>2010-02-27T10:25:05Z</time>
      </trkpt>
      <trkpt lat="46.485103" lon="13.532500">
        <ele>1302.7152</ele>
        <time>2010-02-27T10:25:08Z</time>
      </trkpt>
      <trkpt lat="46.485090" lon="13.532555">
        <ele>1304.8488</ele>
        <time>2010-02-27T10:25:12Z</time>
      </trkpt>
      <trkpt lat="46.485090" lon="13.532595">
        <ele>1305.4584</ele>
        <time>2010-02-27T10:25:19Z</time>
      </trkpt>
      <trkpt lat="46.485102" lon="13.532617">
        <ele>1306.3728</ele>
        <time>2010-02-27T10:25:23Z</time>
      </trkpt>
      <trkpt lat="46.485050" lon="13.532711">
        <ele>1311.2496</ele>
        <time>2010-02-27T10:25:31Z</time>
      </trkpt>
      <trkpt lat="46.484987" lon="13.532784">
        <ele>1311.8592</ele>
        <time>2010-02-27T10:25:40Z</time>
      </trkpt>
      <trkpt lat="46.484968" lon="13.532798">
        <ele>1313.688</ele>
        <time>2010-02-27T10:25:43Z</time>
      </trkpt>
      <trkpt lat="46.484899" lon="13.532855">
        <ele>1318.5648</ele>
        <time>2010-02-27T10:25:47Z</time>
      </trkpt>
      <trkpt lat="46.484863" lon="13.532854">
        <ele>1315.5168</ele>
        <time>2010-02-27T10:25:51Z</time>
      </trkpt>
      <trkpt lat="46.484822" lon="13.532856">
        <ele>1313.688</ele>
        <time>2010-02-27T10:25:57Z</time>
      </trkpt>
      <trkpt lat="46.484773" lon="13.532885">
        <ele>1317.0408</ele>
        <time>2010-02-27T10:26:02Z</time>
      </trkpt>
      <trkpt lat="46.484714" lon="13.532926">
        <ele>1313.9928</ele>
        <time>2010-02-27T10:26:06Z</time>
      </trkpt>
      <trkpt lat="46.484699" lon="13.532932">
        <ele>1313.0784</ele>
        <time>2010-02-27T10:26:09Z</time>
      </trkpt>
      <trkpt lat="46.484666" lon="13.532940">
        <ele>1312.164</ele>
        <time>2010-02-27T10:26:14Z</time>
      </trkpt>
      <trkpt lat="46.484629" lon="13.532974">
        <ele>1316.1264</ele>
        <time>2010-02-27T10:26:18Z</time>
      </trkpt>
      <trkpt lat="46.484553" lon="13.532999">
        <ele>1322.832</ele>
        <time>2010-02-27T10:26:24Z</time>
      </trkpt>
      <trkpt lat="46.484548" lon="13.533036">
        <ele>1328.0136</ele>
        <time>2010-02-27T10:26:29Z</time>
      </trkpt>
      <trkpt lat="46.484488" lon="13.533107">
        <ele>1332.2808</ele>
        <time>2010-02-27T10:26:34Z</time>
      </trkpt>
      <trkpt lat="46.484416" lon="13.533194">
        <ele>1338.072</ele>
        <time>2010-02-27T10:26:41Z</time>
      </trkpt>
      <trkpt lat="46.484357" lon="13.533245">
        <ele>1340.2056</ele>
        <time>2010-02-27T10:26:49Z</time>
      </trkpt>
      <trkpt lat="46.484299" lon="13.533279">
        <ele>1339.596</ele>
        <time>2010-02-27T10:26:56Z</time>
      </trkpt>
      <trkpt lat="46.484227" lon="13.533354">
        <ele>1343.5584</ele>
        <time>2010-02-27T10:27:03Z</time>
      </trkpt>
      <trkpt lat="46.484188" lon="13.533337">
        <ele>1340.2056</ele>
        <time>2010-02-27T10:27:08Z</time>
      </trkpt>
      <trkpt lat="46.484166" lon="13.533334">
        <ele>1337.1576</ele>
        <time>2010-02-27T10:27:14Z</time>
      </trkpt>
      <trkpt lat="46.484155" lon="13.533352">
        <ele>1338.072</ele>
        <time>2010-02-27T10:27:15Z</time>
      </trkpt>
      <trkpt lat="46.484132" lon="13.533341">
        <ele>1335.3288</ele>
        <time>2010-02-27T10:27:20Z</time>
      </trkpt>
      <trkpt lat="46.484101" lon="13.533280">
        <ele>1331.0616</ele>
        <time>2010-02-27T10:27:26Z</time>
      </trkpt>
      <trkpt lat="46.484077" lon="13.533237">
        <ele>1328.928</ele>
        <time>2010-02-27T10:27:31Z</time>
      </trkpt>
      <trkpt lat="46.484062" lon="13.533234">
        <ele>1328.928</ele>
        <time>2010-02-27T10:27:31Z</time>
      </trkpt>
      <trkpt lat="46.484002" lon="13.533238">
        <ele>1329.8424</ele>
        <time>2010-02-27T10:27:38Z</time>
      </trkpt>
      <trkpt lat="46.483994" lon="13.533235">
        <ele>1329.8424</ele>
        <time>2010-02-27T10:27:39Z</time>
      </trkpt>
      <trkpt lat="46.483941" lon="13.533261">
        <ele>1331.3664</ele>
        <time>2010-02-27T10:27:45Z</time>
      </trkpt>
      <trkpt lat="46.483927" lon="13.533274">
        <ele>1332.8904</ele>
        <time>2010-02-27T10:27:46Z</time>
      </trkpt>
      <trkpt lat="46.483882" lon="13.533260">
        <ele>1331.3664</ele>
        <time>2010-02-27T10:27:53Z</time>
      </trkpt>
      <trkpt lat="46.483872" lon="13.533257">
        <ele>1330.452</ele>
        <time>2010-02-27T10:27:57Z</time>
      </trkpt>
      <trkpt lat="46.483889" lon="13.533251">
        <ele>1332.2808</ele>
        <time>2010-02-27T10:28:02Z</time>
      </trkpt>
      <trkpt lat="46.483840" lon="13.533295">
        <ele>1332.8904</ele>
        <time>2010-02-27T10:28:06Z</time>
      </trkpt>
      <trkpt lat="46.483844" lon="13.533306">
        <ele>1331.976</ele>
        <time>2010-02-27T10:28:09Z</time>
      </trkpt>
      <trkpt lat="46.483785" lon="13.533366">
        <ele>1331.0616</ele>
        <time>2010-02-27T10:28:14Z</time>
      </trkpt>
      <trkpt lat="46.483734" lon="13.533431">
        <ele>1334.4144</ele>
        <time>2010-02-27T10:28:20Z</time>
      </trkpt>
      <trkpt lat="46.483683" lon="13.533495">
        <ele>1337.7672</ele>
        <time>2010-02-27T10:28:25Z</time>
      </trkpt>
      <trkpt lat="46.483653" lon="13.533530">
        <ele>1339.596</ele>
        <time>2010-02-27T10:28:29Z</time>
      </trkpt>
      <trkpt lat="46.483639" lon="13.533558">
        <ele>1341.12</ele>
        <time>2010-02-27T10:28:32Z</time>
      </trkpt>
      <trkpt lat="46.483620" lon="13.533604">
        <ele>1343.8632</ele>
        <time>2010-02-27T10:28:35Z</time>
      </trkpt>
      <trkpt lat="46.483589" lon="13.533644">
        <ele>1346.9112</ele>
        <time>2010-02-27T10:28:40Z</time>
      </trkpt>
      <trkpt lat="46.483595" lon="13.533618">
        <ele>1344.4728</ele>
        <time>2010-02-27T10:28:45Z</time>
      </trkpt>
      <trkpt lat="46.483546" lon="13.533635">
        <ele>1348.74</ele>
        <time>2010-02-27T10:28:52Z</time>
      </trkpt>
      <trkpt lat="46.483525" lon="13.533683">
        <ele>1348.74</ele>
        <time>2010-02-27T10:28:56Z</time>
      </trkpt>
      <trkpt lat="46.483491" lon="13.533733">
        <ele>1351.1784</ele>
        <time>2010-02-27T10:28:59Z</time>
      </trkpt>
      <trkpt lat="46.483491" lon="13.533788">
        <ele>1356.0552</ele>
        <time>2010-02-27T10:29:03Z</time>
      </trkpt>
      <trkpt lat="46.483443" lon="13.533894">
        <ele>1362.7608</ele>
        <time>2010-02-27T10:29:07Z</time>
      </trkpt>
      <trkpt lat="46.483413" lon="13.533928">
        <ele>1363.98</ele>
        <time>2010-02-27T10:29:10Z</time>
      </trkpt>
      <trkpt lat="46.483383" lon="13.533959">
        <ele>1365.504</ele>
        <time>2010-02-27T10:29:14Z</time>
      </trkpt>
      <trkpt lat="46.483368" lon="13.533944">
        <ele>1361.5416</ele>
        <time>2010-02-27T10:29:18Z</time>
      </trkpt>
      <trkpt lat="46.483341" lon="13.533938">
        <ele>1357.884</ele>
        <time>2010-02-27T10:29:22Z</time>
      </trkpt>
      <trkpt lat="46.483333" lon="13.533890">
        <ele>1353.6168</ele>
        <time>2010-02-27T10:29:27Z</time>
      </trkpt>
      <trkpt lat="46.483302" lon="13.533895">
        <ele>1353.9216</ele>
        <time>2010-02-27T10:29:31Z</time>
      </trkpt>
      <trkpt lat="46.483254" lon="13.533882">
        <ele>1352.0928</ele>
        <time>2010-02-27T10:29:35Z</time>
      </trkpt>
      <trkpt lat="46.483212" lon="13.533878">
        <ele>1352.0928</ele>
        <time>2010-02-27T10:29:41Z</time>
      </trkpt>
      <trkpt lat="46.483214" lon="13.533846">
        <ele>1352.7024</ele>
        <time>2010-02-27T10:29:45Z</time>
      </trkpt>
      <trkpt lat="46.483158" lon="13.533861">
        <ele>1352.0928</ele>
        <time>2010-02-27T10:29:50Z</time>
      </trkpt>
      <trkpt lat="46.483129" lon="13.533871">
        <ele>1352.0928</ele>
        <time>2010-02-27T10:29:56Z</time>
      </trkpt>
      <trkpt lat="46.483083" lon="13.533882">
        <ele>1351.4832</ele>
        <time>2010-02-27T10:30:01Z</time>
      </trkpt>
      <trkpt lat="46.483038" lon="13.533928">
        <ele>1356.0552</ele>
        <time>2010-02-27T10:30:05Z</time>
      </trkpt>
      <trkpt lat="46.483007" lon="13.533971">
        <ele>1358.7984</ele>
        <time>2010-02-27T10:30:12Z</time>
      </trkpt>
      <trkpt lat="46.482975" lon="13.534002">
        <ele>1360.6272</ele>
        <time>2010-02-27T10:30:17Z</time>
      </trkpt>
      <trkpt lat="46.482929" lon="13.534055">
        <ele>1363.98</ele>
        <time>2010-02-27T10:30:23Z</time>
      </trkpt>
      <trkpt lat="46.482922" lon="13.534071">
        <ele>1365.1992</ele>
        <time>2010-02-27T10:30:24Z</time>
      </trkpt>
      <trkpt lat="46.482887" lon="13.534163">
        <ele>1372.2096</ele>
        <time>2010-02-27T10:30:29Z</time>
      </trkpt>
      <trkpt lat="46.482841" lon="13.534250">
        <ele>1376.4768</ele>
        <time>2010-02-27T10:30:36Z</time>
      </trkpt>
      <trkpt lat="46.482817" lon="13.534296">
        <ele>1376.4768</ele>
        <time>2010-02-27T10:30:40Z</time>
      </trkpt>
      <trkpt lat="46.482810" lon="13.534292">
        <ele>1372.2096</ele>
        <time>2010-02-27T10:30:45Z</time>
      </trkpt>
      <trkpt lat="46.482798" lon="13.534301">
        <ele>1372.2096</ele>
        <time>2010-02-27T10:30:47Z</time>
      </trkpt>
      <trkpt lat="46.482738" lon="13.534346">
        <ele>1373.124</ele>
        <time>2010-02-27T10:30:52Z</time>
      </trkpt>
      <trkpt lat="46.482700" lon="13.534351">
        <ele>1372.2096</ele>
        <time>2010-02-27T10:30:55Z</time>
      </trkpt>
      <trkpt lat="46.482673" lon="13.534350">
        <ele>1371.2952</ele>
        <time>2010-02-27T10:30:59Z</time>
      </trkpt>
      <trkpt lat="46.482610" lon="13.534358">
        <ele>1370.3808</ele>
        <time>2010-02-27T10:31:06Z</time>
      </trkpt>
      <trkpt lat="46.482554" lon="13.534386">
        <ele>1371.2952</ele>
        <time>2010-02-27T10:31:11Z</time>
      </trkpt>
      <trkpt lat="46.482484" lon="13.534398">
        <ele>1370.6856</ele>
        <time>2010-02-27T10:31:18Z</time>
      </trkpt>
      <trkpt lat="46.482431" lon="13.534411">
        <ele>1375.2576</ele>
        <time>2010-02-27T10:31:22Z</time>
      </trkpt>
      <trkpt lat="46.482365" lon="13.534410">
        <ele>1375.2576</ele>
        <time>2010-02-27T10:31:29Z</time>
      </trkpt>
      <trkpt lat="46.482307" lon="13.534418">
        <ele>1375.5624</ele>
        <time>2010-02-27T10:31:35Z</time>
      </trkpt>
      <trkpt lat="46.482261" lon="13.534413">
        <ele>1375.2576</ele>
        <time>2010-02-27T10:31:42Z</time>
      </trkpt>
      <trkpt lat="46.482209" lon="13.534436">
        <ele>1374.648</ele>
        <time>2010-02-27T10:31:49Z</time>
      </trkpt>
      <trkpt lat="46.482143" lon="13.534448">
        <ele>1375.2576</ele>
        <time>2010-02-27T10:31:56Z</time>
      </trkpt>
      <trkpt lat="46.482091" lon="13.534441">
        <ele>1375.2576</ele>
        <time>2010-02-27T10:32:01Z</time>
      </trkpt>
      <trkpt lat="46.482049" lon="13.534478">
        <ele>1378.0008</ele>
        <time>2010-02-27T10:32:05Z</time>
      </trkpt>
      <trkpt lat="46.482001" lon="13.534468">
        <ele>1377.696</ele>
        <time>2010-02-27T10:32:12Z</time>
      </trkpt>
      <trkpt lat="46.481970" lon="13.534460">
        <ele>1375.5624</ele>
        <time>2010-02-27T10:32:16Z</time>
      </trkpt>
      <trkpt lat="46.481939" lon="13.534444">
        <ele>1375.5624</ele>
        <time>2010-02-27T10:32:20Z</time>
      </trkpt>
      <trkpt lat="46.481881" lon="13.534453">
        <ele>1378.0008</ele>
        <time>2010-02-27T10:32:28Z</time>
      </trkpt>
      <trkpt lat="46.481827" lon="13.534458">
        <ele>1378.9152</ele>
        <time>2010-02-27T10:32:35Z</time>
      </trkpt>
      <trkpt lat="46.481801" lon="13.534471">
        <ele>1378.9152</ele>
        <time>2010-02-27T10:32:39Z</time>
      </trkpt>
      <trkpt lat="46.481772" lon="13.534475">
        <ele>1380.4392</ele>
        <time>2010-02-27T10:32:43Z</time>
      </trkpt>
      <trkpt lat="46.481746" lon="13.534458">
        <ele>1378.9152</ele>
        <time>2010-02-27T10:32:47Z</time>
      </trkpt>
      <trkpt lat="46.481723" lon="13.534442">
        <ele>1377.0864</ele>
        <time>2010-02-27T10:32:51Z</time>
      </trkpt>
      <trkpt lat="46.481693" lon="13.534437">
        <ele>1378.0008</ele>
        <time>2010-02-27T10:32:55Z</time>
      </trkpt>
      <trkpt lat="46.481661" lon="13.534447">
        <ele>1380.4392</ele>
        <time>2010-02-27T10:32:59Z</time>
      </trkpt>
      <trkpt lat="46.481630" lon="13.534470">
        <ele>1383.1824</ele>
        <time>2010-02-27T10:33:05Z</time>
      </trkpt>
      <trkpt lat="46.481595" lon="13.534499">
        <ele>1385.6208</ele>
        <time>2010-02-27T10:33:10Z</time>
      </trkpt>
      <trkpt lat="46.481553" lon="13.534516">
        <ele>1388.0592</ele>
        <time>2010-02-27T10:33:14Z</time>
      </trkpt>
      <trkpt lat="46.481527" lon="13.534499">
        <ele>1388.6688</ele>
        <time>2010-02-27T10:33:18Z</time>
      </trkpt>
      <trkpt lat="46.481496" lon="13.534504">
        <ele>1389.5832</ele>
        <time>2010-02-27T10:33:23Z</time>
      </trkpt>
      <trkpt lat="46.481474" lon="13.534501">
        <ele>1390.1928</ele>
        <time>2010-02-27T10:33:27Z</time>
      </trkpt>
      <trkpt lat="46.481445" lon="13.534491">
        <ele>1388.9736</ele>
        <time>2010-02-27T10:33:33Z</time>
      </trkpt>
      <trkpt lat="46.481398" lon="13.534480">
        <ele>1390.1928</ele>
        <time>2010-02-27T10:33:38Z</time>
      </trkpt>
      <trkpt lat="46.481360" lon="13.534483">
        <ele>1392.0216</ele>
        <time>2010-02-27T10:33:44Z</time>
      </trkpt>
      <trkpt lat="46.481315" lon="13.534467">
        <ele>1391.412</ele>
        <time>2010-02-27T10:33:49Z</time>
      </trkpt>
      <trkpt lat="46.481293" lon="13.534468">
        <ele>1389.5832</ele>
        <time>2010-02-27T10:33:53Z</time>
      </trkpt>
      <trkpt lat="46.481260" lon="13.534486">
        <ele>1388.9736</ele>
        <time>2010-02-27T10:34:01Z</time>
      </trkpt>
      <trkpt lat="46.481229" lon="13.534484">
        <ele>1389.5832</ele>
        <time>2010-02-27T10:34:04Z</time>
      </trkpt>
      <trkpt lat="46.481193" lon="13.534508">
        <ele>1393.5456</ele>
        <time>2010-02-27T10:34:15Z</time>
      </trkpt>
      <trkpt lat="46.481142" lon="13.534548">
        <ele>1396.8984</ele>
        <time>2010-02-27T10:34:20Z</time>
      </trkpt>
      <trkpt lat="46.481107" lon="13.534566">
        <ele>1399.6416</ele>
        <time>2010-02-27T10:34:24Z</time>
      </trkpt>
      <trkpt lat="46.481059" lon="13.534591">
        <ele>1403.9088</ele>
        <time>2010-02-27T10:34:28Z</time>
      </trkpt>
      <trkpt lat="46.481025" lon="13.534591">
        <ele>1402.9944</ele>
        <time>2010-02-27T10:34:31Z</time>
      </trkpt>
      <trkpt lat="46.481012" lon="13.534595">
        <ele>1401.4704</ele>
        <time>2010-02-27T10:34:35Z</time>
      </trkpt>
      <trkpt lat="46.481000" lon="13.534584">
        <ele>1402.08</ele>
        <time>2010-02-27T10:34:39Z</time>
      </trkpt>
      <trkpt lat="46.480957" lon="13.534589">
        <ele>1401.1656</ele>
        <time>2010-02-27T10:34:43Z</time>
      </trkpt>
      <trkpt lat="46.480925" lon="13.534610">
        <ele>1400.2512</ele>
        <time>2010-02-27T10:34:47Z</time>
      </trkpt>
      <trkpt lat="46.480866" lon="13.534670">
        <ele>1406.0424</ele>
        <time>2010-02-27T10:34:54Z</time>
      </trkpt>
      <trkpt lat="46.480821" lon="13.534707">
        <ele>1410.6144</ele>
        <time>2010-02-27T10:35:01Z</time>
      </trkpt>
      <trkpt lat="46.480780" lon="13.534719">
        <ele>1413.0528</ele>
        <time>2010-02-27T10:35:06Z</time>
      </trkpt>
      <trkpt lat="46.480734" lon="13.534791">
        <ele>1418.5392</ele>
        <time>2010-02-27T10:35:11Z</time>
      </trkpt>
      <trkpt lat="46.480705" lon="13.534816">
        <ele>1417.9296</ele>
        <time>2010-02-27T10:35:17Z</time>
      </trkpt>
      <trkpt lat="46.480670" lon="13.534872">
        <ele>1421.2824</ele>
        <time>2010-02-27T10:35:21Z</time>
      </trkpt>
      <trkpt lat="46.480623" lon="13.534964">
        <ele>1429.512</ele>
        <time>2010-02-27T10:35:25Z</time>
      </trkpt>
      <trkpt lat="46.480577" lon="13.535041">
        <ele>1433.1696</ele>
        <time>2010-02-27T10:35:33Z</time>
      </trkpt>
      <trkpt lat="46.480591" lon="13.535042">
        <ele>1433.7792</ele>
        <time>2010-02-27T10:35:37Z</time>
      </trkpt>
      <trkpt lat="46.480571" lon="13.535076">
        <ele>1433.7792</ele>
        <time>2010-02-27T10:35:41Z</time>
      </trkpt>
      <trkpt lat="46.480533" lon="13.535106">
        <ele>1432.8648</ele>
        <time>2010-02-27T10:35:48Z</time>
      </trkpt>
      <trkpt lat="46.480534" lon="13.535134">
        <ele>1437.132</ele>
        <time>2010-02-27T10:35:52Z</time>
      </trkpt>
      <trkpt lat="46.480508" lon="13.535124">
        <ele>1432.8648</ele>
        <time>2010-02-27T10:35:57Z</time>
      </trkpt>
      <trkpt lat="46.480446" lon="13.535166">
        <ele>1434.3888</ele>
        <time>2010-02-27T10:36:03Z</time>
      </trkpt>
      <trkpt lat="46.480455" lon="13.535105">
        <ele>1431.3408</ele>
        <time>2010-02-27T10:36:07Z</time>
      </trkpt>
      <trkpt lat="46.480357" lon="13.535058">
        <ele>1423.7208</ele>
        <time>2010-02-27T10:36:22Z</time>
      </trkpt>
      <trkpt lat="46.480305" lon="13.535081">
        <ele>1425.5496</ele>
        <time>2010-02-27T10:36:27Z</time>
      </trkpt>
      <trkpt lat="46.480248" lon="13.535143">
        <ele>1433.1696</ele>
        <time>2010-02-27T10:36:32Z</time>
      </trkpt>
      <trkpt lat="46.480222" lon="13.535143">
        <ele>1436.2176</ele>
        <time>2010-02-27T10:36:36Z</time>
      </trkpt>
      <trkpt lat="46.480184" lon="13.535220">
        <ele>1438.9608</ele>
        <time>2010-02-27T10:36:42Z</time>
      </trkpt>
      <trkpt lat="46.480135" lon="13.535280">
        <ele>1443.5328</ele>
        <time>2010-02-27T10:36:46Z</time>
      </trkpt>
      <trkpt lat="46.480123" lon="13.535252">
        <ele>1440.4848</ele>
        <time>2010-02-27T10:36:50Z</time>
      </trkpt>
      <trkpt lat="46.480078" lon="13.535294">
        <ele>1440.4848</ele>
        <time>2010-02-27T10:36:54Z</time>
      </trkpt>
      <trkpt lat="46.480034" lon="13.53529">
        <ele>1436.8272</ele>
        <time>2010-02-27T10:37:03Z</time>
      </trkpt>
      <trkpt lat="46.480009" lon="13.535287">
        <ele>1435.3032</ele>
        <time>2010-02-27T10:37:10Z</time>
      </trkpt>
      <trkpt lat="46.479999" lon="13.535290">
        <ele>1438.0464</ele>
        <time>2010-02-27T10:37:14Z</time>
      </trkpt>
      <trkpt lat="46.479971" lon="13.535305">
        <ele>1440.18</ele>
        <time>2010-02-27T10:37:18Z</time>
      </trkpt>
      <trkpt lat="46.479944" lon="13.535300">
        <ele>1442.9232</ele>
        <time>2010-02-27T10:37:24Z</time>
      </trkpt>
      <trkpt lat="46.479908" lon="13.535318">
        <ele>1442.9232</ele>
        <time>2010-02-27T10:37:25Z</time>
      </trkpt>
      <trkpt lat="46.479855" lon="13.535357">
        <ele>1445.3616</ele>
        <time>2010-02-27T10:37:30Z</time>
      </trkpt>
      <trkpt lat="46.479858" lon="13.535268">
        <ele>1444.4472</ele>
        <time>2010-02-27T10:37:37Z</time>
      </trkpt>
      <trkpt lat="46.479822" lon="13.535194">
        <ele>1447.8</ele>
        <time>2010-02-27T10:37:40Z</time>
      </trkpt>
      <trkpt lat="46.479747" lon="13.535165">
        <ele>1452.0672</ele>
        <time>2010-02-27T10:37:45Z</time>
      </trkpt>
      <trkpt lat="46.479771" lon="13.535141">
        <ele>1452.0672</ele>
        <time>2010-02-27T10:37:52Z</time>
      </trkpt>
      <trkpt lat="46.479784" lon="13.535123">
        <ele>1448.1048</ele>
        <time>2010-02-27T10:38:00Z</time>
      </trkpt>
      <trkpt lat="46.479725" lon="13.535161">
        <ele>1448.7144</ele>
        <time>2010-02-27T10:38:04Z</time>
      </trkpt>
      <trkpt lat="46.479692" lon="13.535175">
        <ele>1450.5432</ele>
        <time>2010-02-27T10:38:07Z</time>
      </trkpt>
      <trkpt lat="46.479626" lon="13.535127">
        <ele>1452.6768</ele>
        <time>2010-02-27T10:38:14Z</time>
      </trkpt>
      <trkpt lat="46.479570" lon="13.535084">
        <ele>1452.9816</ele>
        <time>2010-02-27T10:38:19Z</time>
      </trkpt>
      <trkpt lat="46.479535" lon="13.534991">
        <ele>1452.0672</ele>
        <time>2010-02-27T10:38:26Z</time>
      </trkpt>
      <trkpt lat="46.479508" lon="13.534968">
        <ele>1453.5912</ele>
        <time>2010-02-27T10:38:31Z</time>
      </trkpt>
      <trkpt lat="46.479532" lon="13.534919">
        <ele>1453.5912</ele>
        <time>2010-02-27T10:38:34Z</time>
      </trkpt>
      <trkpt lat="46.479512" lon="13.534885">
        <ele>1452.9816</ele>
        <time>2010-02-27T10:38:39Z</time>
      </trkpt>
      <trkpt lat="46.479391" lon="13.534894">
        <ele>1452.0672</ele>
        <time>2010-02-27T10:38:51Z</time>
      </trkpt>
      <trkpt lat="46.479310" lon="13.534907">
        <ele>1451.1528</ele>
        <time>2010-02-27T10:38:58Z</time>
      </trkpt>
      <trkpt lat="46.479245" lon="13.534914">
        <ele>1451.1528</ele>
        <time>2010-02-27T10:39:02Z</time>
      </trkpt>
      <trkpt lat="46.479231" lon="13.534875">
        <ele>1451.1528</ele>
        <time>2010-02-27T10:39:06Z</time>
      </trkpt>
      <trkpt lat="46.479211" lon="13.534845">
        <ele>1455.42</ele>
        <time>2010-02-27T10:39:10Z</time>
      </trkpt>
      <trkpt lat="46.479199" lon="13.534813">
        <ele>1459.6872</ele>
        <time>2010-02-27T10:39:17Z</time>
      </trkpt>
      <trkpt lat="46.479177" lon="13.534819">
        <ele>1461.2112</ele>
        <time>2010-02-27T10:39:18Z</time>
      </trkpt>
      <trkpt lat="46.479112" lon="13.534817">
        <ele>1463.9544</ele>
        <time>2010-02-27T10:39:24Z</time>
      </trkpt>
      <trkpt lat="46.479041" lon="13.534835">
        <ele>1467.0024</ele>
        <time>2010-02-27T10:39:28Z</time>
      </trkpt>
      <trkpt lat="46.479072" lon="13.534797">
        <ele>1470.3552</ele>
        <time>2010-02-27T10:39:32Z</time>
      </trkpt>
      <trkpt lat="46.479075" lon="13.534841">
        <ele>1474.6224</ele>
        <time>2010-02-27T10:39:37Z</time>
      </trkpt>
      <trkpt lat="46.479063" lon="13.534873">
        <ele>1473.0984</ele>
        <time>2010-02-27T10:39:40Z</time>
      </trkpt>
      <trkpt lat="46.479023" lon="13.534977">
        <ele>1475.5368</ele>
        <time>2010-02-27T10:39:44Z</time>
      </trkpt>
      <trkpt lat="46.479020" lon="13.535096">
        <ele>1479.804</ele>
        <time>2010-02-27T10:39:50Z</time>
      </trkpt>
      <trkpt lat="46.478979" lon="13.535197">
        <ele>1479.4992</ele>
        <time>2010-02-27T10:39:52Z</time>
      </trkpt>
      <trkpt lat="46.478929" lon="13.535280">
        <ele>1476.1464</ele>
        <time>2010-02-27T10:39:58Z</time>
      </trkpt>
      <trkpt lat="46.478975" lon="13.535270">
        <ele>1473.708</ele>
        <time>2010-02-27T10:40:03Z</time>
      </trkpt>
      <trkpt lat="46.478943" lon="13.535336">
        <ele>1474.3176</ele>
        <time>2010-02-27T10:40:08Z</time>
      </trkpt>
      <trkpt lat="46.478875" lon="13.535285">
        <ele>1473.708</ele>
        <time>2010-02-27T10:40:18Z</time>
      </trkpt>
      <trkpt lat="46.478876" lon="13.535234">
        <ele>1476.1464</ele>
        <time>2010-02-27T10:40:22Z</time>
      </trkpt>
      <trkpt lat="46.478864" lon="13.535182">
        <ele>1477.6704</ele>
        <time>2010-02-27T10:40:27Z</time>
      </trkpt>
      <trkpt lat="46.478845" lon="13.535116">
        <ele>1478.5848</ele>
        <time>2010-02-27T10:40:31Z</time>
      </trkpt>
      <trkpt lat="46.478794" lon="13.535120">
        <ele>1478.5848</ele>
        <time>2010-02-27T10:40:35Z</time>
      </trkpt>
      <trkpt lat="46.478778" lon="13.535072">
        <ele>1475.5368</ele>
        <time>2010-02-27T10:40:38Z</time>
      </trkpt>
      <trkpt lat="46.478825" lon="13.534986">
        <ele>1479.4992</ele>
        <time>2010-02-27T10:40:44Z</time>
      </trkpt>
      <trkpt lat="46.478818" lon="13.534875">
        <ele>1483.1568</ele>
        <time>2010-02-27T10:40:49Z</time>
      </trkpt>
      <trkpt lat="46.478696" lon="13.534902">
        <ele>1485.5952</ele>
        <time>2010-02-27T10:40:56Z</time>
      </trkpt>
      <trkpt lat="46.478689" lon="13.534875">
        <ele>1487.1192</ele>
        <time>2010-02-27T10:40:57Z</time>
      </trkpt>
      <trkpt lat="46.478686" lon="13.534810">
        <ele>1489.5576</ele>
        <time>2010-02-27T10:41:02Z</time>
      </trkpt>
      <trkpt lat="46.478675" lon="13.534767">
        <ele>1494.4344</ele>
        <time>2010-02-27T10:41:06Z</time>
      </trkpt>
      <trkpt lat="46.478671" lon="13.534758">
        <ele>1494.7392</ele>
        <time>2010-02-27T10:41:08Z</time>
      </trkpt>
      <trkpt lat="46.478602" lon="13.534748">
        <ele>1492.9104</ele>
        <time>2010-02-27T10:41:13Z</time>
      </trkpt>
      <trkpt lat="46.478519" lon="13.534758">
        <ele>1490.472</ele>
        <time>2010-02-27T10:41:20Z</time>
      </trkpt>
      <trkpt lat="46.478496" lon="13.534719">
        <ele>1491.996</ele>
        <time>2010-02-27T10:41:24Z</time>
      </trkpt>
      <trkpt lat="46.478476" lon="13.534650">
        <ele>1495.3488</ele>
        <time>2010-02-27T10:41:29Z</time>
      </trkpt>
      <trkpt lat="46.478474" lon="13.534581">
        <ele>1500.5304</ele>
        <time>2010-02-27T10:41:36Z</time>
      </trkpt>
      <trkpt lat="46.478484" lon="13.534541">
        <ele>1504.7976</ele>
        <time>2010-02-27T10:41:40Z</time>
      </trkpt>
      <trkpt lat="46.478464" lon="13.534484">
        <ele>1507.236</ele>
        <time>2010-02-27T10:41:43Z</time>
      </trkpt>
      <trkpt lat="46.478434" lon="13.534478">
        <ele>1508.1504</ele>
        <time>2010-02-27T10:41:47Z</time>
      </trkpt>
      <trkpt lat="46.478390" lon="13.534480">
        <ele>1507.236</ele>
        <time>2010-02-27T10:41:52Z</time>
      </trkpt>
      <trkpt lat="46.478311" lon="13.534542">
        <ele>1503.5784</ele>
        <time>2010-02-27T10:41:59Z</time>
      </trkpt>
      <trkpt lat="46.478261" lon="13.534591">
        <ele>1502.9688</ele>
        <time>2010-02-27T10:42:05Z</time>
      </trkpt>
      <trkpt lat="46.478239" lon="13.534696">
        <ele>1502.664</ele>
        <time>2010-02-27T10:42:11Z</time>
      </trkpt>
      <trkpt lat="46.478228" lon="13.534749">
        <ele>1501.14</ele>
        <time>2010-02-27T10:42:15Z</time>
      </trkpt>
      <trkpt lat="46.478136" lon="13.534806">
        <ele>1495.3488</ele>
        <time>2010-02-27T10:42:22Z</time>
      </trkpt>
      <trkpt lat="46.478070" lon="13.534842">
        <ele>1491.3864</ele>
        <time>2010-02-27T10:42:29Z</time>
      </trkpt>
      <trkpt lat="46.478065" lon="13.534844">
        <ele>1490.472</ele>
        <time>2010-02-27T10:42:30Z</time>
      </trkpt>
      <trkpt lat="46.478035" lon="13.534878">
        <ele>1491.996</ele>
        <time>2010-02-27T10:42:34Z</time>
      </trkpt>
      <trkpt lat="46.478014" lon="13.534868">
        <ele>1495.6536</ele>
        <time>2010-02-27T10:42:41Z</time>
      </trkpt>
      <trkpt lat="46.477987" lon="13.534809">
        <ele>1498.092</ele>
        <time>2010-02-27T10:42:46Z</time>
      </trkpt>
      <trkpt lat="46.477974" lon="13.534737">
        <ele>1502.664</ele>
        <time>2010-02-27T10:42:53Z</time>
      </trkpt>
      <trkpt lat="46.477975" lon="13.53469">
        <ele>1506.0168</ele>
        <time>2010-02-27T10:42:57Z</time>
      </trkpt>
      <trkpt lat="46.477970" lon="13.534689">
        <ele>1506.3216</ele>
        <time>2010-02-27T10:42:59Z</time>
      </trkpt>
      <trkpt lat="46.477932" lon="13.534737">
        <ele>1510.5888</ele>
        <time>2010-02-27T10:43:07Z</time>
      </trkpt>
      <trkpt lat="46.477893" lon="13.534774">
        <ele>1510.284</ele>
        <time>2010-02-27T10:43:11Z</time>
      </trkpt>
      <trkpt lat="46.477856" lon="13.534823">
        <ele>1509.3696</ele>
        <time>2010-02-27T10:43:16Z</time>
      </trkpt>
      <trkpt lat="46.477823" lon="13.534890">
        <ele>1508.1504</ele>
        <time>2010-02-27T10:43:23Z</time>
      </trkpt>
      <trkpt lat="46.477827" lon="13.534932">
        <ele>1509.3696</ele>
        <time>2010-02-27T10:43:28Z</time>
      </trkpt>
      <trkpt lat="46.477845" lon="13.53498">
        <ele>1509.6744</ele>
        <time>2010-02-27T10:43:32Z</time>
      </trkpt>
      <trkpt lat="46.477870" lon="13.535021">
        <ele>1510.284</ele>
        <time>2010-02-27T10:43:38Z</time>
      </trkpt>
      <trkpt lat="46.477900" lon="13.535061">
        <ele>1511.808</ele>
        <time>2010-02-27T10:43:43Z</time>
      </trkpt>
      <trkpt lat="46.477913" lon="13.535112">
        <ele>1511.1984</ele>
        <time>2010-02-27T10:43:47Z</time>
      </trkpt>
      <trkpt lat="46.477933" lon="13.535150">
        <ele>1513.6368</ele>
        <time>2010-02-27T10:43:51Z</time>
      </trkpt>
      <trkpt lat="46.477935" lon="13.535160">
        <ele>1515.4656</ele>
        <time>2010-02-27T10:43:53Z</time>
      </trkpt>
      <trkpt lat="46.477907" lon="13.535186">
        <ele>1517.2944</ele>
        <time>2010-02-27T10:43:58Z</time>
      </trkpt>
      <trkpt lat="46.477831" lon="13.535219">
        <ele>1516.0752</ele>
        <time>2010-02-27T10:44:03Z</time>
      </trkpt>
      <trkpt lat="46.477790" lon="13.535183">
        <ele>1519.7328</ele>
        <time>2010-02-27T10:44:09Z</time>
      </trkpt>
      <trkpt lat="46.477748" lon="13.535166">
        <ele>1522.1712</ele>
        <time>2010-02-27T10:44:14Z</time>
      </trkpt>
      <trkpt lat="46.477704" lon="13.535182">
        <ele>1522.1712</ele>
        <time>2010-02-27T10:44:18Z</time>
      </trkpt>
      <trkpt lat="46.477660" lon="13.535195">
        <ele>1522.1712</ele>
        <time>2010-02-27T10:44:22Z</time>
      </trkpt>
      <trkpt lat="46.477587" lon="13.535153">
        <ele>1522.7808</ele>
        <time>2010-02-27T10:44:26Z</time>
      </trkpt>
      <trkpt lat="46.477563" lon="13.535064">
        <ele>1528.8768</ele>
        <time>2010-02-27T10:44:33Z</time>
      </trkpt>
      <trkpt lat="46.477574" lon="13.535049">
        <ele>1531.0104</ele>
        <time>2010-02-27T10:44:33Z</time>
      </trkpt>
      <trkpt lat="46.477568" lon="13.534980">
        <ele>1537.1064</ele>
        <time>2010-02-27T10:44:37Z</time>
      </trkpt>
      <trkpt lat="46.477522" lon="13.534939">
        <ele>1536.192</ele>
        <time>2010-02-27T10:44:45Z</time>
      </trkpt>
      <trkpt lat="46.477490" lon="13.53494">
        <ele>1532.8392</ele>
        <time>2010-02-27T10:44:49Z</time>
      </trkpt>
      <trkpt lat="46.477453" lon="13.534937">
        <ele>1530.4008</ele>
        <time>2010-02-27T10:44:55Z</time>
      </trkpt>
      <trkpt lat="46.477421" lon="13.534933">
        <ele>1527.9624</ele>
        <time>2010-02-27T10:44:59Z</time>
      </trkpt>
      <trkpt lat="46.477411" lon="13.534918">
        <ele>1527.6576</ele>
        <time>2010-02-27T10:45:01Z</time>
      </trkpt>
      <trkpt lat="46.477399" lon="13.534898">
        <ele>1527.9624</ele>
        <time>2010-02-27T10:45:05Z</time>
      </trkpt>
      <trkpt lat="46.477410" lon="13.534851">
        <ele>1531.3152</ele>
        <time>2010-02-27T10:45:11Z</time>
      </trkpt>
      <trkpt lat="46.477415" lon="13.534811">
        <ele>1534.668</ele>
        <time>2010-02-27T10:45:16Z</time>
      </trkpt>
      <trkpt lat="46.477410" lon="13.534771">
        <ele>1537.716</ele>
        <time>2010-02-27T10:45:19Z</time>
      </trkpt>
      <trkpt lat="46.477375" lon="13.534722">
        <ele>1537.716</ele>
        <time>2010-02-27T10:45:26Z</time>
      </trkpt>
      <trkpt lat="46.477351" lon="13.534693">
        <ele>1537.1064</ele>
        <time>2010-02-27T10:45:30Z</time>
      </trkpt>
      <trkpt lat="46.477328" lon="13.534663">
        <ele>1537.716</ele>
        <time>2010-02-27T10:45:34Z</time>
      </trkpt>
      <trkpt lat="46.477301" lon="13.534647">
        <ele>1537.1064</ele>
        <time>2010-02-27T10:45:39Z</time>
      </trkpt>
      <trkpt lat="46.477298" lon="13.534614">
        <ele>1539.5448</ele>
        <time>2010-02-27T10:45:43Z</time>
      </trkpt>
      <trkpt lat="46.477283" lon="13.534572">
        <ele>1541.0688</ele>
        <time>2010-02-27T10:45:47Z</time>
      </trkpt>
      <trkpt lat="46.477265" lon="13.534536">
        <ele>1541.0688</ele>
        <time>2010-02-27T10:45:51Z</time>
      </trkpt>
      <trkpt lat="46.477262" lon="13.534490">
        <ele>1543.5072</ele>
        <time>2010-02-27T10:45:55Z</time>
      </trkpt>
      <trkpt lat="46.477229" lon="13.534462">
        <ele>1547.1648</ele>
        <time>2010-02-27T10:46:02Z</time>
      </trkpt>
      <trkpt lat="46.477210" lon="13.534425">
        <ele>1549.2984</ele>
        <time>2010-02-27T10:46:06Z</time>
      </trkpt>
      <trkpt lat="46.477209" lon="13.534390">
        <ele>1549.2984</ele>
        <time>2010-02-27T10:46:10Z</time>
      </trkpt>
      <trkpt lat="46.477208" lon="13.534349">
        <ele>1549.6032</ele>
        <time>2010-02-27T10:46:14Z</time>
      </trkpt>
      <trkpt lat="46.477165" lon="13.534310">
        <ele>1548.0792</ele>
        <time>2010-02-27T10:46:18Z</time>
      </trkpt>
      <trkpt lat="46.477161" lon="13.534271">
        <ele>1549.2984</ele>
        <time>2010-02-27T10:46:22Z</time>
      </trkpt>
      <trkpt lat="46.477151" lon="13.534236">
        <ele>1550.5176</ele>
        <time>2010-02-27T10:46:26Z</time>
      </trkpt>
      <trkpt lat="46.477158" lon="13.534191">
        <ele>1551.1272</ele>
        <time>2010-02-27T10:46:30Z</time>
      </trkpt>
      <trkpt lat="46.477142" lon="13.534156">
        <ele>1551.1272</ele>
        <time>2010-02-27T10:46:35Z</time>
      </trkpt>
      <trkpt lat="46.477160" lon="13.534101">
        <ele>1553.8704</ele>
        <time>2010-02-27T10:46:40Z</time>
      </trkpt>
      <trkpt lat="46.477144" lon="13.534050">
        <ele>1556.004</ele>
        <time>2010-02-27T10:46:44Z</time>
      </trkpt>
      <trkpt lat="46.477154" lon="13.533974">
        <ele>1556.3088</ele>
        <time>2010-02-27T10:46:49Z</time>
      </trkpt>
      <trkpt lat="46.477141" lon="13.533905">
        <ele>1556.9184</ele>
        <time>2010-02-27T10:46:55Z</time>
      </trkpt>
      <trkpt lat="46.477129" lon="13.533850">
        <ele>1556.9184</ele>
        <time>2010-02-27T10:46:59Z</time>
      </trkpt>
      <trkpt lat="46.477107" lon="13.533808">
        <ele>1556.004</ele>
        <time>2010-02-27T10:47:03Z</time>
      </trkpt>
      <trkpt lat="46.477113" lon="13.533792">
        <ele>1553.5656</ele>
        <time>2010-02-27T10:47:07Z</time>
      </trkpt>
      <trkpt lat="46.477108" lon="13.533739">
        <ele>1552.6512</ele>
        <time>2010-02-27T10:47:14Z</time>
      </trkpt>
      <trkpt lat="46.477078" lon="13.533726">
        <ele>1555.3944</ele>
        <time>2010-02-27T10:47:19Z</time>
      </trkpt>
      <trkpt lat="46.477063" lon="13.533737">
        <ele>1558.1376</ele>
        <time>2010-02-27T10:47:23Z</time>
      </trkpt>
      <trkpt lat="46.477058" lon="13.533717">
        <ele>1558.7472</ele>
        <time>2010-02-27T10:47:27Z</time>
      </trkpt>
      <trkpt lat="46.477039" lon="13.533691">
        <ele>1559.6616</ele>
        <time>2010-02-27T10:47:31Z</time>
      </trkpt>
      <trkpt lat="46.477021" lon="13.533662">
        <ele>1558.7472</ele>
        <time>2010-02-27T10:47:34Z</time>
      </trkpt>
      <trkpt lat="46.477015" lon="13.533624">
        <ele>1559.6616</ele>
        <time>2010-02-27T10:47:38Z</time>
      </trkpt>
      <trkpt lat="46.476997" lon="13.533569">
        <ele>1559.3568</ele>
        <time>2010-02-27T10:47:45Z</time>
      </trkpt>
      <trkpt lat="46.476973" lon="13.533543">
        <ele>1559.3568</ele>
        <time>2010-02-27T10:47:49Z</time>
      </trkpt>
      <trkpt lat="46.476942" lon="13.533525">
        <ele>1558.1376</ele>
        <time>2010-02-27T10:47:53Z</time>
      </trkpt>
      <trkpt lat="46.476899" lon="13.533511">
        <ele>1557.8328</ele>
        <time>2010-02-27T10:47:58Z</time>
      </trkpt>
      <trkpt lat="46.476867" lon="13.533515">
        <ele>1558.1376</ele>
        <time>2010-02-27T10:48:02Z</time>
      </trkpt>
      <trkpt lat="46.476837" lon="13.533504">
        <ele>1559.6616</ele>
        <time>2010-02-27T10:48:06Z</time>
      </trkpt>
      <trkpt lat="46.476794" lon="13.533531">
        <ele>1561.7952</ele>
        <time>2010-02-27T10:48:12Z</time>
      </trkpt>
      <trkpt lat="46.476766" lon="13.533549">
        <ele>1563.624</ele>
        <time>2010-02-27T10:48:17Z</time>
      </trkpt>
      <trkpt lat="46.476763" lon="13.533569">
        <ele>1565.148</ele>
        <time>2010-02-27T10:48:20Z</time>
      </trkpt>
      <trkpt lat="46.476733" lon="13.533642">
        <ele>1566.0624</ele>
        <time>2010-02-27T10:48:25Z</time>
      </trkpt>
      <trkpt lat="46.476726" lon="13.533688">
        <ele>1566.9768</ele>
        <time>2010-02-27T10:48:31Z</time>
      </trkpt>
      <trkpt lat="46.476723" lon="13.533736">
        <ele>1567.8912</ele>
        <time>2010-02-27T10:48:36Z</time>
      </trkpt>
      <trkpt lat="46.476700" lon="13.533796">
        <ele>1566.0624</ele>
        <time>2010-02-27T10:48:40Z</time>
      </trkpt>
      <trkpt lat="46.476701" lon="13.533866">
        <ele>1568.5008</ele>
        <time>2010-02-27T10:48:45Z</time>
      </trkpt>
      <trkpt lat="46.476686" lon="13.533901">
        <ele>1567.8912</ele>
        <time>2010-02-27T10:48:48Z</time>
      </trkpt>
      <trkpt lat="46.476659" lon="13.533938">
        <ele>1567.8912</ele>
        <time>2010-02-27T10:48:54Z</time>
      </trkpt>
      <trkpt lat="46.476620" lon="13.533949">
        <ele>1570.3296</ele>
        <time>2010-02-27T10:48:59Z</time>
      </trkpt>
      <trkpt lat="46.476592" lon="13.533931">
        <ele>1571.8536</ele>
        <time>2010-02-27T10:49:03Z</time>
      </trkpt>
      <trkpt lat="46.476548" lon="13.533891">
        <ele>1572.768</ele>
        <time>2010-02-27T10:49:07Z</time>
      </trkpt>
      <trkpt lat="46.476525" lon="13.533873">
        <ele>1572.768</ele>
        <time>2010-02-27T10:49:11Z</time>
      </trkpt>
      <trkpt lat="46.476519" lon="13.533854">
        <ele>1575.2064</ele>
        <time>2010-02-27T10:49:17Z</time>
      </trkpt>
      <trkpt lat="46.476465" lon="13.533780">
        <ele>1576.4256</ele>
        <time>2010-02-27T10:49:23Z</time>
      </trkpt>
      <trkpt lat="46.476432" lon="13.533768">
        <ele>1575.5112</ele>
        <time>2010-02-27T10:49:29Z</time>
      </trkpt>
      <trkpt lat="46.476392" lon="13.533757">
        <ele>1576.1208</ele>
        <time>2010-02-27T10:49:34Z</time>
      </trkpt>
      <trkpt lat="46.476354" lon="13.533748">
        <ele>1577.0352</ele>
        <time>2010-02-27T10:49:38Z</time>
      </trkpt>
      <trkpt lat="46.476322" lon="13.533718">
        <ele>1578.5592</ele>
        <time>2010-02-27T10:49:42Z</time>
      </trkpt>
      <trkpt lat="46.476282" lon="13.533687">
        <ele>1579.7784</ele>
        <time>2010-02-27T10:49:46Z</time>
      </trkpt>
      <trkpt lat="46.476249" lon="13.533690">
        <ele>1580.388</ele>
        <time>2010-02-27T10:49:50Z</time>
      </trkpt>
      <trkpt lat="46.476219" lon="13.533667">
        <ele>1579.7784</ele>
        <time>2010-02-27T10:49:56Z</time>
      </trkpt>
      <trkpt lat="46.476186" lon="13.533650">
        <ele>1580.9976</ele>
        <time>2010-02-27T10:50:01Z</time>
      </trkpt>
      <trkpt lat="46.476153" lon="13.533637">
        <ele>1581.3024</ele>
        <time>2010-02-27T10:50:05Z</time>
      </trkpt>
      <trkpt lat="46.476117" lon="13.533637">
        <ele>1582.8264</ele>
        <time>2010-02-27T10:50:09Z</time>
      </trkpt>
      <trkpt lat="46.476076" lon="13.533627">
        <ele>1583.1312</ele>
        <time>2010-02-27T10:50:16Z</time>
      </trkpt>
      <trkpt lat="46.476058" lon="13.533603">
        <ele>1585.5696</ele>
        <time>2010-02-27T10:50:23Z</time>
      </trkpt>
      <trkpt lat="46.476047" lon="13.533560">
        <ele>1586.7888</ele>
        <time>2010-02-27T10:50:28Z</time>
      </trkpt>
      <trkpt lat="46.476030" lon="13.533545">
        <ele>1587.7032</ele>
        <time>2010-02-27T10:50:31Z</time>
      </trkpt>
      <trkpt lat="46.476012" lon="13.533524">
        <ele>1587.0936</ele>
        <time>2010-02-27T10:50:32Z</time>
      </trkpt>
      <trkpt lat="46.476003" lon="13.533515">
        <ele>1586.7888</ele>
        <time>2010-02-27T10:50:36Z</time>
      </trkpt>
      <trkpt lat="46.475999" lon="13.533506">
        <ele>1585.5696</ele>
        <time>2010-02-27T10:50:36Z</time>
      </trkpt>
      <trkpt lat="46.475986" lon="13.533485">
        <ele>1584.3504</ele>
        <time>2010-02-27T10:50:38Z</time>
      </trkpt>
      <trkpt lat="46.475916" lon="13.533416">
        <ele>1584.6552</ele>
        <time>2010-02-27T10:50:44Z</time>
      </trkpt>
      <trkpt lat="46.475869" lon="13.533341">
        <ele>1586.7888</ele>
        <time>2010-02-27T10:50:54Z</time>
      </trkpt>
      <trkpt lat="46.475837" lon="13.533254">
        <ele>1587.7032</ele>
        <time>2010-02-27T10:51:02Z</time>
      </trkpt>
      <trkpt lat="46.475813" lon="13.533163">
        <ele>1588.008</ele>
        <time>2010-02-27T10:51:10Z</time>
      </trkpt>
      <trkpt lat="46.475806" lon="13.533080">
        <ele>1588.9224</ele>
        <time>2010-02-27T10:51:18Z</time>
      </trkpt>
      <trkpt lat="46.475797" lon="13.533028">
        <ele>1590.4464</ele>
        <time>2010-02-27T10:51:22Z</time>
      </trkpt>
      <trkpt lat="46.475773" lon="13.532921">
        <ele>1590.4464</ele>
        <time>2010-02-27T10:51:30Z</time>
      </trkpt>
      <trkpt lat="46.475766" lon="13.532875">
        <ele>1589.532</ele>
        <time>2010-02-27T10:51:34Z</time>
      </trkpt>
      <trkpt lat="46.475742" lon="13.532786">
        <ele>1588.9224</ele>
        <time>2010-02-27T10:51:40Z</time>
      </trkpt>
      <trkpt lat="46.475723" lon="13.532679">
        <ele>1587.7032</ele>
        <time>2010-02-27T10:51:46Z</time>
      </trkpt>
      <trkpt lat="46.475690" lon="13.532606">
        <ele>1587.0936</ele>
        <time>2010-02-27T10:51:53Z</time>
      </trkpt>
      <trkpt lat="46.475678" lon="13.532535">
        <ele>1586.7888</ele>
        <time>2010-02-27T10:51:57Z</time>
      </trkpt>
      <trkpt lat="46.475674" lon="13.532518">
        <ele>1586.7888</ele>
        <time>2010-02-27T10:52:01Z</time>
      </trkpt>
      <trkpt lat="46.475637" lon="13.532457">
        <ele>1587.7032</ele>
        <time>2010-02-27T10:52:04Z</time>
      </trkpt>
      <trkpt lat="46.475597" lon="13.532377">
        <ele>1590.4464</ele>
        <time>2010-02-27T10:52:09Z</time>
      </trkpt>
      <trkpt lat="46.475551" lon="13.532285">
        <ele>1593.4944</ele>
        <time>2010-02-27T10:52:17Z</time>
      </trkpt>
      <trkpt lat="46.475540" lon="13.532210">
        <ele>1594.7136</ele>
        <time>2010-02-27T10:52:24Z</time>
      </trkpt>
      <trkpt lat="46.475551" lon="13.532150">
        <ele>1595.3232</ele>
        <time>2010-02-27T10:52:28Z</time>
      </trkpt>
      <trkpt lat="46.475575" lon="13.532078">
        <ele>1595.3232</ele>
        <time>2010-02-27T10:52:35Z</time>
      </trkpt>
      <trkpt lat="46.475561" lon="13.532014">
        <ele>1597.152</ele>
        <time>2010-02-27T10:52:40Z</time>
      </trkpt>
      <trkpt lat="46.475560" lon="13.531914">
        <ele>1597.7616</ele>
        <time>2010-02-27T10:52:47Z</time>
      </trkpt>
      <trkpt lat="46.475576" lon="13.531879">
        <ele>1597.7616</ele>
        <time>2010-02-27T10:52:50Z</time>
      </trkpt>
      <trkpt lat="46.475601" lon="13.531848">
        <ele>1597.7616</ele>
        <time>2010-02-27T10:52:53Z</time>
      </trkpt>
      <trkpt lat="46.475605" lon="13.531839">
        <ele>1598.0664</ele>
        <time>2010-02-27T10:52:54Z</time>
      </trkpt>
      <trkpt lat="46.475622" lon="13.531771">
        <ele>1602.0288</ele>
        <time>2010-02-27T10:53:01Z</time>
      </trkpt>
      <trkpt lat="46.475631" lon="13.531725">
        <ele>1605.3816</ele>
        <time>2010-02-27T10:53:06Z</time>
      </trkpt>
      <trkpt lat="46.475651" lon="13.531695">
        <ele>1605.3816</ele>
        <time>2010-02-27T10:53:07Z</time>
      </trkpt>
      <trkpt lat="46.475643" lon="13.531613">
        <ele>1606.296</ele>
        <time>2010-02-27T10:53:13Z</time>
      </trkpt>
      <trkpt lat="46.475636" lon="13.531547">
        <ele>1606.9056</ele>
        <time>2010-02-27T10:53:17Z</time>
      </trkpt>
      <trkpt lat="46.475633" lon="13.531512">
        <ele>1606.296</ele>
        <time>2010-02-27T10:53:18Z</time>
      </trkpt>
      <trkpt lat="46.475646" lon="13.531442">
        <ele>1606.296</ele>
        <time>2010-02-27T10:53:24Z</time>
      </trkpt>
      <trkpt lat="46.475625" lon="13.531362">
        <ele>1608.1248</ele>
        <time>2010-02-27T10:53:29Z</time>
      </trkpt>
      <trkpt lat="46.475596" lon="13.531293">
        <ele>1610.5632</ele>
        <time>2010-02-27T10:53:34Z</time>
      </trkpt>
      <trkpt lat="46.475581" lon="13.531246">
        <ele>1613.0016</ele>
        <time>2010-02-27T10:53:38Z</time>
      </trkpt>
      <trkpt lat="46.475620" lon="13.531193">
        <ele>1613.0016</ele>
        <time>2010-02-27T10:53:42Z</time>
      </trkpt>
      <trkpt lat="46.475628" lon="13.531155">
        <ele>1613.916</ele>
        <time>2010-02-27T10:53:45Z</time>
      </trkpt>
      <trkpt lat="46.475641" lon="13.531092">
        <ele>1615.1352</ele>
        <time>2010-02-27T10:53:51Z</time>
      </trkpt>
      <trkpt lat="46.475674" lon="13.531041">
        <ele>1615.44</ele>
        <time>2010-02-27T10:53:55Z</time>
      </trkpt>
      <trkpt lat="46.475700" lon="13.530968">
        <ele>1617.2688</ele>
        <time>2010-02-27T10:54:00Z</time>
      </trkpt>
      <trkpt lat="46.475730" lon="13.530924">
        <ele>1618.488</ele>
        <time>2010-02-27T10:54:04Z</time>
      </trkpt>
      <trkpt lat="46.475742" lon="13.530869">
        <ele>1620.3168</ele>
        <time>2010-02-27T10:54:11Z</time>
      </trkpt>
      <trkpt lat="46.475797" lon="13.530794">
        <ele>1623.06</ele>
        <time>2010-02-27T10:54:22Z</time>
      </trkpt>
      <trkpt lat="46.475817" lon="13.530724">
        <ele>1627.9368</ele>
        <time>2010-02-27T10:54:28Z</time>
      </trkpt>
      <trkpt lat="46.475827" lon="13.530658">
        <ele>1630.9848</ele>
        <time>2010-02-27T10:54:32Z</time>
      </trkpt>
      <trkpt lat="46.475855" lon="13.530602">
        <ele>1632.8136</ele>
        <time>2010-02-27T10:54:35Z</time>
      </trkpt>
      <trkpt lat="46.475880" lon="13.530555">
        <ele>1629.7656</ele>
        <time>2010-02-27T10:54:39Z</time>
      </trkpt>
      <trkpt lat="46.475902" lon="13.530508">
        <ele>1627.9368</ele>
        <time>2010-02-27T10:54:45Z</time>
      </trkpt>
      <trkpt lat="46.475939" lon="13.530458">
        <ele>1627.632</ele>
        <time>2010-02-27T10:54:49Z</time>
      </trkpt>
      <trkpt lat="46.475957" lon="13.530402">
        <ele>1626.108</ele>
        <time>2010-02-27T10:54:54Z</time>
      </trkpt>
      <trkpt lat="46.475972" lon="13.530344">
        <ele>1626.108</ele>
        <time>2010-02-27T10:54:58Z</time>
      </trkpt>
      <trkpt lat="46.475969" lon="13.530300">
        <ele>1627.0224</ele>
        <time>2010-02-27T10:55:02Z</time>
      </trkpt>
      <trkpt lat="46.475996" lon="13.530157">
        <ele>1628.5464</ele>
        <time>2010-02-27T10:55:17Z</time>
      </trkpt>
      <trkpt lat="46.475986" lon="13.530106">
        <ele>1630.9848</ele>
        <time>2010-02-27T10:55:22Z</time>
      </trkpt>
      <trkpt lat="46.475999" lon="13.530069">
        <ele>1632.204</ele>
        <time>2010-02-27T10:55:26Z</time>
      </trkpt>
      <trkpt lat="46.475993" lon="13.529995">
        <ele>1634.3376</ele>
        <time>2010-02-27T10:55:35Z</time>
      </trkpt>
      <trkpt lat="46.476004" lon="13.529960">
        <ele>1635.5568</ele>
        <time>2010-02-27T10:55:37Z</time>
      </trkpt>
      <trkpt lat="46.476007" lon="13.529910">
        <ele>1636.776</ele>
        <time>2010-02-27T10:55:43Z</time>
      </trkpt>
      <trkpt lat="46.476008" lon="13.529859">
        <ele>1638.6048</ele>
        <time>2010-02-27T10:55:47Z</time>
      </trkpt>
      <trkpt lat="46.476010" lon="13.529819">
        <ele>1637.9952</ele>
        <time>2010-02-27T10:55:53Z</time>
      </trkpt>
      <trkpt lat="46.476017" lon="13.529788">
        <ele>1637.9952</ele>
        <time>2010-02-27T10:55:56Z</time>
      </trkpt>
      <trkpt lat="46.476035" lon="13.529754">
        <ele>1637.9952</ele>
        <time>2010-02-27T10:56:00Z</time>
      </trkpt>
      <trkpt lat="46.476044" lon="13.529693">
        <ele>1639.5192</ele>
        <time>2010-02-27T10:56:07Z</time>
      </trkpt>
      <trkpt lat="46.476077" lon="13.529658">
        <ele>1640.1288</ele>
        <time>2010-02-27T10:56:11Z</time>
      </trkpt>
      <trkpt lat="46.476166" lon="13.529559">
        <ele>1643.7864</ele>
        <time>2010-02-27T10:56:23Z</time>
      </trkpt>
      <trkpt lat="46.476212" lon="13.529538">
        <ele>1645.3104</ele>
        <time>2010-02-27T10:56:29Z</time>
      </trkpt>
      <trkpt lat="46.476277" lon="13.529507">
        <ele>1647.7488</ele>
        <time>2010-02-27T10:56:35Z</time>
      </trkpt>
      <trkpt lat="46.476319" lon="13.529475">
        <ele>1649.2728</ele>
        <time>2010-02-27T10:56:43Z</time>
      </trkpt>
      <trkpt lat="46.476312" lon="13.529284">
        <ele>1652.6256</ele>
        <time>2010-02-27T10:57:06Z</time>
      </trkpt>
      <trkpt lat="46.476299" lon="13.529244">
        <ele>1653.54</ele>
        <time>2010-02-27T10:57:10Z</time>
      </trkpt>
      <trkpt lat="46.476288" lon="13.529208">
        <ele>1653.8448</ele>
        <time>2010-02-27T10:57:14Z</time>
      </trkpt>
      <trkpt lat="46.476255" lon="13.529162">
        <ele>1654.7592</ele>
        <time>2010-02-27T10:57:21Z</time>
      </trkpt>
      <trkpt lat="46.476219" lon="13.529116">
        <ele>1656.2832</ele>
        <time>2010-02-27T10:57:27Z</time>
      </trkpt>
      <trkpt lat="46.476203" lon="13.529068">
        <ele>1655.9784</ele>
        <time>2010-02-27T10:57:32Z</time>
      </trkpt>
      <trkpt lat="46.476198" lon="13.529024">
        <ele>1655.9784</ele>
        <time>2010-02-27T10:57:36Z</time>
      </trkpt>
      <trkpt lat="46.476184" lon="13.528986">
        <ele>1656.2832</ele>
        <time>2010-02-27T10:57:40Z</time>
      </trkpt>
      <trkpt lat="46.476175" lon="13.528936">
        <ele>1656.8928</ele>
        <time>2010-02-27T10:57:45Z</time>
      </trkpt>
      <trkpt lat="46.476161" lon="13.528887">
        <ele>1657.1976</ele>
        <time>2010-02-27T10:57:51Z</time>
      </trkpt>
      <trkpt lat="46.476156" lon="13.528844">
        <ele>1657.8072</ele>
        <time>2010-02-27T10:57:55Z</time>
      </trkpt>
      <trkpt lat="46.476135" lon="13.528802">
        <ele>1659.636</ele>
        <time>2010-02-27T10:57:59Z</time>
      </trkpt>
      <trkpt lat="46.476157" lon="13.528747">
        <ele>1660.5504</ele>
        <time>2010-02-27T10:58:04Z</time>
      </trkpt>
      <trkpt lat="46.476187" lon="13.528700">
        <ele>1662.9888</ele>
        <time>2010-02-27T10:58:11Z</time>
      </trkpt>
      <trkpt lat="46.476227" lon="13.528678">
        <ele>1664.5128</ele>
        <time>2010-02-27T10:58:15Z</time>
      </trkpt>
      <trkpt lat="46.476287" lon="13.528666">
        <ele>1666.9512</ele>
        <time>2010-02-27T10:58:21Z</time>
      </trkpt>
      <trkpt lat="46.476338" lon="13.528702">
        <ele>1668.4752</ele>
        <time>2010-02-27T10:58:29Z</time>
      </trkpt>
      <trkpt lat="46.476339" lon="13.528721">
        <ele>1670.304</ele>
        <time>2010-02-27T10:58:34Z</time>
      </trkpt>
      <trkpt lat="46.476387" lon="13.528733">
        <ele>1669.6944</ele>
        <time>2010-02-27T10:58:38Z</time>
      </trkpt>
      <trkpt lat="46.476433" lon="13.528735">
        <ele>1670.6088</ele>
        <time>2010-02-27T10:58:44Z</time>
      </trkpt>
      <trkpt lat="46.476456" lon="13.528711">
        <ele>1672.1328</ele>
        <time>2010-02-27T10:58:48Z</time>
      </trkpt>
      <trkpt lat="46.476444" lon="13.528659">
        <ele>1675.1808</ele>
        <time>2010-02-27T10:58:53Z</time>
      </trkpt>
      <trkpt lat="46.476447" lon="13.528620">
        <ele>1677.0096</ele>
        <time>2010-02-27T10:58:57Z</time>
      </trkpt>
      <trkpt lat="46.476467" lon="13.528562">
        <ele>1678.5336</ele>
        <time>2010-02-27T10:59:04Z</time>
      </trkpt>
      <trkpt lat="46.476469" lon="13.528521">
        <ele>1679.7528</ele>
        <time>2010-02-27T10:59:08Z</time>
      </trkpt>
      <trkpt lat="46.476472" lon="13.52848">
        <ele>1679.448</ele>
        <time>2010-02-27T10:59:12Z</time>
      </trkpt>
      <trkpt lat="46.476454" lon="13.528434">
        <ele>1681.2768</ele>
        <time>2010-02-27T10:59:16Z</time>
      </trkpt>
      <trkpt lat="46.476459" lon="13.528385">
        <ele>1681.2768</ele>
        <time>2010-02-27T10:59:20Z</time>
      </trkpt>
      <trkpt lat="46.476441" lon="13.528352">
        <ele>1682.8008</ele>
        <time>2010-02-27T10:59:24Z</time>
      </trkpt>
      <trkpt lat="46.476429" lon="13.528297">
        <ele>1685.2392</ele>
        <time>2010-02-27T10:59:28Z</time>
      </trkpt>
      <trkpt lat="46.476452" lon="13.528256">
        <ele>1685.544</ele>
        <time>2010-02-27T10:59:32Z</time>
      </trkpt>
      <trkpt lat="46.476464" lon="13.528221">
        <ele>1685.544</ele>
        <time>2010-02-27T10:59:36Z</time>
      </trkpt>
      <trkpt lat="46.476473" lon="13.528178">
        <ele>1685.544</ele>
        <time>2010-02-27T10:59:40Z</time>
      </trkpt>
      <trkpt lat="46.476480" lon="13.528139">
        <ele>1686.1536</ele>
        <time>2010-02-27T10:59:44Z</time>
      </trkpt>
      <trkpt lat="46.476482" lon="13.528099">
        <ele>1687.9824</ele>
        <time>2010-02-27T10:59:48Z</time>
      </trkpt>
      <trkpt lat="46.476454" lon="13.528055">
        <ele>1690.116</ele>
        <time>2010-02-27T10:59:52Z</time>
      </trkpt>
      <trkpt lat="46.476444" lon="13.528010">
        <ele>1691.3352</ele>
        <time>2010-02-27T10:59:56Z</time>
      </trkpt>
      <trkpt lat="46.476466" lon="13.527977">
        <ele>1692.2496</ele>
        <time>2010-02-27T10:59:59Z</time>
      </trkpt>
      <trkpt lat="46.476474" lon="13.527922">
        <ele>1696.212</ele>
        <time>2010-02-27T11:00:05Z</time>
      </trkpt>
      <trkpt lat="46.476463" lon="13.527865">
        <ele>1700.1744</ele>
        <time>2010-02-27T11:00:10Z</time>
      </trkpt>
      <trkpt lat="46.476440" lon="13.527821">
        <ele>1703.832</ele>
        <time>2010-02-27T11:00:14Z</time>
      </trkpt>
      <trkpt lat="46.476415" lon="13.527791">
        <ele>1706.2704</ele>
        <time>2010-02-27T11:00:17Z</time>
      </trkpt>
      <trkpt lat="46.476401" lon="13.527750">
        <ele>1707.1848</ele>
        <time>2010-02-27T11:00:22Z</time>
      </trkpt>
      <trkpt lat="46.476413" lon="13.527723">
        <ele>1706.2704</ele>
        <time>2010-02-27T11:00:25Z</time>
      </trkpt>
      <trkpt lat="46.476450" lon="13.527690">
        <ele>1705.356</ele>
        <time>2010-02-27T11:00:30Z</time>
      </trkpt>
      <trkpt lat="46.476475" lon="13.527656">
        <ele>1704.7464</ele>
        <time>2010-02-27T11:00:34Z</time>
      </trkpt>
      <trkpt lat="46.476480" lon="13.527609">
        <ele>1703.832</ele>
        <time>2010-02-27T11:00:38Z</time>
      </trkpt>
      <trkpt lat="46.476482" lon="13.527567">
        <ele>1703.832</ele>
        <time>2010-02-27T11:00:42Z</time>
      </trkpt>
      <trkpt lat="46.476488" lon="13.527531">
        <ele>1703.5272</ele>
        <time>2010-02-27T11:00:46Z</time>
      </trkpt>
      <trkpt lat="46.476475" lon="13.527484">
        <ele>1704.7464</ele>
        <time>2010-02-27T11:00:50Z</time>
      </trkpt>
      <trkpt lat="46.476444" lon="13.527447">
        <ele>1708.0992</ele>
        <time>2010-02-27T11:00:54Z</time>
      </trkpt>
      <trkpt lat="46.476436" lon="13.527404">
        <ele>1710.2328</ele>
        <time>2010-02-27T11:00:59Z</time>
      </trkpt>
      <trkpt lat="46.476420" lon="13.527362">
        <ele>1712.6712</ele>
        <time>2010-02-27T11:01:03Z</time>
      </trkpt>
      <trkpt lat="46.476433" lon="13.527317">
        <ele>1712.6712</ele>
        <time>2010-02-27T11:01:08Z</time>
      </trkpt>
      <trkpt lat="46.476449" lon="13.527274">
        <ele>1712.0616</ele>
        <time>2010-02-27T11:01:12Z</time>
      </trkpt>
      <trkpt lat="46.476477" lon="13.527237">
        <ele>1711.7568</ele>
        <time>2010-02-27T11:01:16Z</time>
      </trkpt>
      <trkpt lat="46.476506" lon="13.527195">
        <ele>1711.7568</ele>
        <time>2010-02-27T11:01:20Z</time>
      </trkpt>
      <trkpt lat="46.476503" lon="13.527143">
        <ele>1713.5856</ele>
        <time>2010-02-27T11:01:26Z</time>
      </trkpt>
      <trkpt lat="46.476508" lon="13.527102">
        <ele>1714.5</ele>
        <time>2010-02-27T11:01:30Z</time>
      </trkpt>
      <trkpt lat="46.476509" lon="13.527055">
        <ele>1716.024</ele>
        <time>2010-02-27T11:01:35Z</time>
      </trkpt>
      <trkpt lat="46.476507" lon="13.527017">
        <ele>1717.2432</ele>
        <time>2010-02-27T11:01:39Z</time>
      </trkpt>
      <trkpt lat="46.476532" lon="13.526967">
        <ele>1716.024</ele>
        <time>2010-02-27T11:01:43Z</time>
      </trkpt>
      <trkpt lat="46.476547" lon="13.526917">
        <ele>1716.024</ele>
        <time>2010-02-27T11:01:48Z</time>
      </trkpt>
      <trkpt lat="46.476553" lon="13.526868">
        <ele>1716.024</ele>
        <time>2010-02-27T11:01:55Z</time>
      </trkpt>
      <trkpt lat="46.476545" lon="13.526809">
        <ele>1718.4624</ele>
        <time>2010-02-27T11:02:02Z</time>
      </trkpt>
      <trkpt lat="46.476561" lon="13.526760">
        <ele>1718.7672</ele>
        <time>2010-02-27T11:02:06Z</time>
      </trkpt>
      <trkpt lat="46.476567" lon="13.526707">
        <ele>1719.6816</ele>
        <time>2010-02-27T11:02:11Z</time>
      </trkpt>
      <trkpt lat="46.476575" lon="13.526676">
        <ele>1720.9008</ele>
        <time>2010-02-27T11:02:14Z</time>
      </trkpt>
      <trkpt lat="46.476567" lon="13.526625">
        <ele>1722.7296</ele>
        <time>2010-02-27T11:02:20Z</time>
      </trkpt>
      <trkpt lat="46.476571" lon="13.526595">
        <ele>1723.644</ele>
        <time>2010-02-27T11:02:22Z</time>
      </trkpt>
      <trkpt lat="46.476577" lon="13.526536">
        <ele>1725.168</ele>
        <time>2010-02-27T11:02:28Z</time>
      </trkpt>
      <trkpt lat="46.476572" lon="13.526478">
        <ele>1726.0824</ele>
        <time>2010-02-27T11:02:33Z</time>
      </trkpt>
      <trkpt lat="46.476593" lon="13.526405">
        <ele>1727.9112</ele>
        <time>2010-02-27T11:02:40Z</time>
      </trkpt>
      <trkpt lat="46.476600" lon="13.526318">
        <ele>1727.9112</ele>
        <time>2010-02-27T11:02:48Z</time>
      </trkpt>
      <trkpt lat="46.476607" lon="13.526244">
        <ele>1726.9968</ele>
        <time>2010-02-27T11:02:53Z</time>
      </trkpt>
      <trkpt lat="46.476606" lon="13.526156">
        <ele>1727.6064</ele>
        <time>2010-02-27T11:03:00Z</time>
      </trkpt>
      <trkpt lat="46.476627" lon="13.526086">
        <ele>1726.0824</ele>
        <time>2010-02-27T11:03:05Z</time>
      </trkpt>
      <trkpt lat="46.476632" lon="13.526058">
        <ele>1726.0824</ele>
        <time>2010-02-27T11:03:08Z</time>
      </trkpt>
      <trkpt lat="46.476650" lon="13.526001">
        <ele>1725.168</ele>
        <time>2010-02-27T11:03:12Z</time>
      </trkpt>
      <trkpt lat="46.476678" lon="13.525920">
        <ele>1725.168</ele>
        <time>2010-02-27T11:03:19Z</time>
      </trkpt>
      <trkpt lat="46.476701" lon="13.525853">
        <ele>1725.168</ele>
        <time>2010-02-27T11:03:24Z</time>
      </trkpt>
      <trkpt lat="46.476727" lon="13.525791">
        <ele>1725.168</ele>
        <time>2010-02-27T11:03:31Z</time>
      </trkpt>
      <trkpt lat="46.476776" lon="13.525730">
        <ele>1725.4728</ele>
        <time>2010-02-27T11:03:39Z</time>
      </trkpt>
      <trkpt lat="46.476812" lon="13.525652">
        <ele>1725.168</ele>
        <time>2010-02-27T11:03:46Z</time>
      </trkpt>
      <trkpt lat="46.476836" lon="13.525580">
        <ele>1726.9968</ele>
        <time>2010-02-27T11:03:53Z</time>
      </trkpt>
      <trkpt lat="46.476856" lon="13.525512">
        <ele>1729.4352</ele>
        <time>2010-02-27T11:03:58Z</time>
      </trkpt>
      <trkpt lat="46.476887" lon="13.525423">
        <ele>1731.264</ele>
        <time>2010-02-27T11:04:06Z</time>
      </trkpt>
      <trkpt lat="46.476926" lon="13.52537">
        <ele>1732.1784</ele>
        <time>2010-02-27T11:04:13Z</time>
      </trkpt>
      <trkpt lat="46.476959" lon="13.525294">
        <ele>1733.7024</ele>
        <time>2010-02-27T11:04:20Z</time>
      </trkpt>
      <trkpt lat="46.476981" lon="13.525238">
        <ele>1735.2264</ele>
        <time>2010-02-27T11:04:25Z</time>
      </trkpt>
      <trkpt lat="46.477010" lon="13.525177">
        <ele>1737.0552</ele>
        <time>2010-02-27T11:04:30Z</time>
      </trkpt>
      <trkpt lat="46.477048" lon="13.525148">
        <ele>1737.6648</ele>
        <time>2010-02-27T11:04:37Z</time>
      </trkpt>
      <trkpt lat="46.477077" lon="13.525116">
        <ele>1738.5792</ele>
        <time>2010-02-27T11:04:41Z</time>
      </trkpt>
      <trkpt lat="46.477107" lon="13.525083">
        <ele>1739.4936</ele>
        <time>2010-02-27T11:04:47Z</time>
      </trkpt>
      <trkpt lat="46.477158" lon="13.525061">
        <ele>1741.3224</ele>
        <time>2010-02-27T11:04:52Z</time>
      </trkpt>
      <trkpt lat="46.477207" lon="13.525049">
        <ele>1742.2368</ele>
        <time>2010-02-27T11:04:59Z</time>
      </trkpt>
      <trkpt lat="46.477265" lon="13.525067">
        <ele>1742.2368</ele>
        <time>2010-02-27T11:05:06Z</time>
      </trkpt>
      <trkpt lat="46.477315" lon="13.525092">
        <ele>1741.3224</ele>
        <time>2010-02-27T11:05:11Z</time>
      </trkpt>
      <trkpt lat="46.477367" lon="13.525093">
        <ele>1742.2368</ele>
        <time>2010-02-27T11:05:18Z</time>
      </trkpt>
      <trkpt lat="46.477413" lon="13.525086">
        <ele>1743.456</ele>
        <time>2010-02-27T11:05:23Z</time>
      </trkpt>
      <trkpt lat="46.477470" lon="13.525076">
        <ele>1744.3704</ele>
        <time>2010-02-27T11:05:29Z</time>
      </trkpt>
      <trkpt lat="46.477532" lon="13.525078">
        <ele>1744.6752</ele>
        <time>2010-02-27T11:05:35Z</time>
      </trkpt>
      <trkpt lat="46.477607" lon="13.525078">
        <ele>1745.5896</ele>
        <time>2010-02-27T11:05:45Z</time>
      </trkpt>
      <trkpt lat="46.477688" lon="13.525093">
        <ele>1746.1992</ele>
        <time>2010-02-27T11:05:54Z</time>
      </trkpt>
      <trkpt lat="46.477767" lon="13.525071">
        <ele>1746.1992</ele>
        <time>2010-02-27T11:06:05Z</time>
      </trkpt>
      <trkpt lat="46.477824" lon="13.525035">
        <ele>1745.5896</ele>
        <time>2010-02-27T11:06:12Z</time>
      </trkpt>
      <trkpt lat="46.477873" lon="13.524991">
        <ele>1745.5896</ele>
        <time>2010-02-27T11:06:18Z</time>
      </trkpt>
      <trkpt lat="46.477921" lon="13.524945">
        <ele>1746.1992</ele>
        <time>2010-02-27T11:06:25Z</time>
      </trkpt>
      <trkpt lat="46.477966" lon="13.524899">
        <ele>1747.7232</ele>
        <time>2010-02-27T11:06:31Z</time>
      </trkpt>
      <trkpt lat="46.478000" lon="13.524863">
        <ele>1748.6376</ele>
        <time>2010-02-27T11:06:36Z</time>
      </trkpt>
      <trkpt lat="46.478046" lon="13.524829">
        <ele>1749.552</ele>
        <time>2010-02-27T11:06:41Z</time>
      </trkpt>
      <trkpt lat="46.478085" lon="13.524799">
        <ele>1750.4664</ele>
        <time>2010-02-27T11:06:47Z</time>
      </trkpt>
      <trkpt lat="46.478132" lon="13.524765">
        <ele>1751.3808</ele>
        <time>2010-02-27T11:06:52Z</time>
      </trkpt>
      <trkpt lat="46.478173" lon="13.524745">
        <ele>1752.6</ele>
        <time>2010-02-27T11:06:58Z</time>
      </trkpt>
      <trkpt lat="46.478214" lon="13.524729">
        <ele>1752.9048</ele>
        <time>2010-02-27T11:07:03Z</time>
      </trkpt>
      <trkpt lat="46.478256" lon="13.524707">
        <ele>1753.5144</ele>
        <time>2010-02-27T11:07:08Z</time>
      </trkpt>
      <trkpt lat="46.478296" lon="13.524690">
        <ele>1754.4288</ele>
        <time>2010-02-27T11:07:14Z</time>
      </trkpt>
      <trkpt lat="46.478341" lon="13.524674">
        <ele>1754.7336</ele>
        <time>2010-02-27T11:07:19Z</time>
      </trkpt>
      <trkpt lat="46.478381" lon="13.524657">
        <ele>1754.7336</ele>
        <time>2010-02-27T11:07:22Z</time>
      </trkpt>
      <trkpt lat="46.478459" lon="13.524624">
        <ele>1755.9528</ele>
        <time>2010-02-27T11:07:30Z</time>
      </trkpt>
      <trkpt lat="46.478531" lon="13.524592">
        <ele>1756.2576</ele>
        <time>2010-02-27T11:07:38Z</time>
      </trkpt>
      <trkpt lat="46.478590" lon="13.524560">
        <ele>1757.7816</ele>
        <time>2010-02-27T11:07:44Z</time>
      </trkpt>
      <trkpt lat="46.478664" lon="13.524533">
        <ele>1758.3912</ele>
        <time>2010-02-27T11:07:49Z</time>
      </trkpt>
      <trkpt lat="46.478741" lon="13.524509">
        <ele>1758.696</ele>
        <time>2010-02-27T11:07:54Z</time>
      </trkpt>
      <trkpt lat="46.478810" lon="13.524492">
        <ele>1758.696</ele>
        <time>2010-02-27T11:08:01Z</time>
      </trkpt>
      <trkpt lat="46.478875" lon="13.524461">
        <ele>1759.6104</ele>
        <time>2010-02-27T11:08:08Z</time>
      </trkpt>
      <trkpt lat="46.478945" lon="13.524423">
        <ele>1760.5248</ele>
        <time>2010-02-27T11:08:16Z</time>
      </trkpt>
      <trkpt lat="46.478996" lon="13.524397">
        <ele>1761.1344</ele>
        <time>2010-02-27T11:08:20Z</time>
      </trkpt>
      <trkpt lat="46.479060" lon="13.524368">
        <ele>1761.1344</ele>
        <time>2010-02-27T11:08:25Z</time>
      </trkpt>
      <trkpt lat="46.479101" lon="13.524344">
        <ele>1762.6584</ele>
        <time>2010-02-27T11:08:32Z</time>
      </trkpt>
      <trkpt lat="46.479133" lon="13.524328">
        <ele>1762.9632</ele>
        <time>2010-02-27T11:08:36Z</time>
      </trkpt>
      <trkpt lat="46.479142" lon="13.524317">
        <ele>1763.8776</ele>
        <time>2010-02-27T11:08:40Z</time>
      </trkpt>
      <trkpt lat="46.479161" lon="13.524299">
        <ele>1764.4872</ele>
        <time>2010-02-27T11:08:44Z</time>
      </trkpt>
      <trkpt lat="46.479183" lon="13.524287">
        <ele>1765.4016</ele>
        <time>2010-02-27T11:08:48Z</time>
      </trkpt>
      <trkpt lat="46.479205" lon="13.524263">
        <ele>1767.2304</ele>
        <time>2010-02-27T11:08:52Z</time>
      </trkpt>
      <trkpt lat="46.479230" lon="13.524235">
        <ele>1769.6688</ele>
        <time>2010-02-27T11:08:58Z</time>
      </trkpt>
      <trkpt lat="46.479248" lon="13.524211">
        <ele>1771.1928</ele>
        <time>2010-02-27T11:09:03Z</time>
      </trkpt>
      <trkpt lat="46.479255" lon="13.524176">
        <ele>1773.0216</ele>
        <time>2010-02-27T11:09:07Z</time>
      </trkpt>
      <trkpt lat="46.479280" lon="13.524149">
        <ele>1773.6312</ele>
        <time>2010-02-27T11:09:10Z</time>
      </trkpt>
      <trkpt lat="46.479301" lon="13.524137">
        <ele>1774.5456</ele>
        <time>2010-02-27T11:09:14Z</time>
      </trkpt>
      <trkpt lat="46.479320" lon="13.524132">
        <ele>1776.0696</ele>
        <time>2010-02-27T11:09:18Z</time>
      </trkpt>
      <trkpt lat="46.479336" lon="13.524133">
        <ele>1777.5936</ele>
        <time>2010-02-27T11:09:22Z</time>
      </trkpt>
      <trkpt lat="46.479350" lon="13.524122">
        <ele>1777.8984</ele>
        <time>2010-02-27T11:09:26Z</time>
      </trkpt>
      <trkpt lat="46.479367" lon="13.524098">
        <ele>1778.508</ele>
        <time>2010-02-27T11:09:30Z</time>
      </trkpt>
      <trkpt lat="46.479398" lon="13.524120">
        <ele>1778.8128</ele>
        <time>2010-02-27T11:09:36Z</time>
      </trkpt>
      <trkpt lat="46.479424" lon="13.524125">
        <ele>1780.3368</ele>
        <time>2010-02-27T11:09:41Z</time>
      </trkpt>
      <trkpt lat="46.479441" lon="13.524108">
        <ele>1781.2512</ele>
        <time>2010-02-27T11:09:45Z</time>
      </trkpt>
      <trkpt lat="46.479469" lon="13.524090">
        <ele>1781.2512</ele>
        <time>2010-02-27T11:09:49Z</time>
      </trkpt>
      <trkpt lat="46.479497" lon="13.524072">
        <ele>1781.8608</ele>
        <time>2010-02-27T11:09:53Z</time>
      </trkpt>
      <trkpt lat="46.479522" lon="13.524045">
        <ele>1782.1656</ele>
        <time>2010-02-27T11:09:57Z</time>
      </trkpt>
      <trkpt lat="46.479545" lon="13.524028">
        <ele>1783.08</ele>
        <time>2010-02-27T11:10:01Z</time>
      </trkpt>
      <trkpt lat="46.479595" lon="13.523985">
        <ele>1783.08</ele>
        <time>2010-02-27T11:10:08Z</time>
      </trkpt>
      <trkpt lat="46.479631" lon="13.523978">
        <ele>1783.6896</ele>
        <time>2010-02-27T11:10:15Z</time>
      </trkpt>
      <trkpt lat="46.479668" lon="13.523958">
        <ele>1784.2992</ele>
        <time>2010-02-27T11:10:20Z</time>
      </trkpt>
      <trkpt lat="46.479695" lon="13.523946">
        <ele>1784.604</ele>
        <time>2010-02-27T11:10:26Z</time>
      </trkpt>
      <trkpt lat="46.479726" lon="13.523952">
        <ele>1785.2136</ele>
        <time>2010-02-27T11:10:31Z</time>
      </trkpt>
      <trkpt lat="46.479757" lon="13.523947">
        <ele>1786.7376</ele>
        <time>2010-02-27T11:10:36Z</time>
      </trkpt>
      <trkpt lat="46.479771" lon="13.523936">
        <ele>1787.0424</ele>
        <time>2010-02-27T11:10:40Z</time>
      </trkpt>
      <trkpt lat="46.479779" lon="13.523900">
        <ele>1788.5664</ele>
        <time>2010-02-27T11:10:44Z</time>
      </trkpt>
      <trkpt lat="46.479783" lon="13.523853">
        <ele>1789.4808</ele>
        <time>2010-02-27T11:10:50Z</time>
      </trkpt>
      <trkpt lat="46.479781" lon="13.523810">
        <ele>1790.3952</ele>
        <time>2010-02-27T11:10:55Z</time>
      </trkpt>
      <trkpt lat="46.479779" lon="13.523765">
        <ele>1791.3096</ele>
        <time>2010-02-27T11:10:59Z</time>
      </trkpt>
      <trkpt lat="46.479774" lon="13.523709">
        <ele>1792.224</ele>
        <time>2010-02-27T11:11:06Z</time>
      </trkpt>
      <trkpt lat="46.479775" lon="13.523661">
        <ele>1793.4432</ele>
        <time>2010-02-27T11:11:10Z</time>
      </trkpt>
    </trkseg>
  </trk>
</gpx>
